<?xml version="1.0" encoding="UTF-8" standalone="no" ?>
<gpx xmlns="http://www.topografix.com/GPX/1/1" xmlns:xsi="http://www.w3.org/2001/XMLSchema-instance" xsi:schemaLocation="http://www.topografix.com/GPX/1/1 http://www.topografix.com/GPX/1/1/gpx.xsd" version="1.1" creator="VisuGPX - https://www.visugpx.com">
  <metadata>
    <name>La Legette - Les Saisies (73)</name>
  </metadata>
  <trk>
    <name><![CDATA[Hauteluce Cyclisme]]></name>
    <extensions>
      <line xmlns="http://www.topografix.com/GPX/gpx_style/0/2">
        <color>0000FF</color>
        <opacity>0.5</opacity>
        <width>7</width>
      </line>
    </extensions>
    <trkseg>
      <trkpt lat="45.76902" lon="6.54733">
        <ele>1907</ele>
        <time>2021-06-23T11:26:58.000Z</time>
      </trkpt>
      <trkpt lat="45.76902" lon="6.54733">
        <ele>1907</ele>
        <time>2021-06-23T11:26:58.000Z</time>
      </trkpt>
      <trkpt lat="45.76902" lon="6.54733">
        <ele>1908.1999511719</ele>
        <time>2021-06-23T11:27:00.000Z</time>
      </trkpt>
      <trkpt lat="45.76904" lon="6.54739">
        <ele>1908.1999511719</ele>
        <time>2021-06-23T11:27:09.000Z</time>
      </trkpt>
      <trkpt lat="45.76903" lon="6.54742">
        <ele>1907</ele>
        <time>2021-06-23T11:27:12.000Z</time>
      </trkpt>
      <trkpt lat="45.76901" lon="6.54741">
        <ele>1906.8000488281</ele>
        <time>2021-06-23T11:27:13.000Z</time>
      </trkpt>
      <trkpt lat="45.76896" lon="6.5474">
        <ele>1906.1999511719</ele>
        <time>2021-06-23T11:27:15.000Z</time>
      </trkpt>
      <trkpt lat="45.76882" lon="6.54724">
        <ele>1907.5999755859</ele>
        <time>2021-06-23T11:27:19.000Z</time>
      </trkpt>
      <trkpt lat="45.76873" lon="6.54712">
        <ele>1907.4000244141</ele>
        <time>2021-06-23T11:27:21.000Z</time>
      </trkpt>
      <trkpt lat="45.76868" lon="6.547">
        <ele>1906.5999755859</ele>
        <time>2021-06-23T11:27:23.000Z</time>
      </trkpt>
      <trkpt lat="45.76859" lon="6.54689">
        <ele>1906.4000244141</ele>
        <time>2021-06-23T11:27:26.000Z</time>
      </trkpt>
      <trkpt lat="45.76856" lon="6.54687">
        <ele>1906.4000244141</ele>
        <time>2021-06-23T11:27:27.000Z</time>
      </trkpt>
      <trkpt lat="45.7685" lon="6.54683">
        <ele>1905.5999755859</ele>
        <time>2021-06-23T11:27:30.000Z</time>
      </trkpt>
      <trkpt lat="45.76846" lon="6.54686">
        <ele>1904.5999755859</ele>
        <time>2021-06-23T11:27:31.000Z</time>
      </trkpt>
      <trkpt lat="45.76844" lon="6.54692">
        <ele>1903.8000488281</ele>
        <time>2021-06-23T11:27:32.000Z</time>
      </trkpt>
      <trkpt lat="45.76843" lon="6.54698">
        <ele>1902.5999755859</ele>
        <time>2021-06-23T11:27:33.000Z</time>
      </trkpt>
      <trkpt lat="45.76842" lon="6.54703">
        <ele>1902</ele>
        <time>2021-06-23T11:27:34.000Z</time>
      </trkpt>
      <trkpt lat="45.76841" lon="6.54707">
        <ele>1901.5999755859</ele>
        <time>2021-06-23T11:27:35.000Z</time>
      </trkpt>
      <trkpt lat="45.76839" lon="6.54707">
        <ele>1901</ele>
        <time>2021-06-23T11:27:36.000Z</time>
      </trkpt>
      <trkpt lat="45.76838" lon="6.54705">
        <ele>1900.5999755859</ele>
        <time>2021-06-23T11:27:37.000Z</time>
      </trkpt>
      <trkpt lat="45.76837" lon="6.547">
        <ele>1900.4000244141</ele>
        <time>2021-06-23T11:27:38.000Z</time>
      </trkpt>
      <trkpt lat="45.76833" lon="6.54697">
        <ele>1900</ele>
        <time>2021-06-23T11:27:40.000Z</time>
      </trkpt>
      <trkpt lat="45.76831" lon="6.54701">
        <ele>1899.8000488281</ele>
        <time>2021-06-23T11:27:41.000Z</time>
      </trkpt>
      <trkpt lat="45.76829" lon="6.54706">
        <ele>1899.1999511719</ele>
        <time>2021-06-23T11:27:42.000Z</time>
      </trkpt>
      <trkpt lat="45.76826" lon="6.54712">
        <ele>1898.8000488281</ele>
        <time>2021-06-23T11:27:43.000Z</time>
      </trkpt>
      <trkpt lat="45.76825" lon="6.54719">
        <ele>1898.4000244141</ele>
        <time>2021-06-23T11:27:44.000Z</time>
      </trkpt>
      <trkpt lat="45.76825" lon="6.54726">
        <ele>1897.8000488281</ele>
        <time>2021-06-23T11:27:45.000Z</time>
      </trkpt>
      <trkpt lat="45.76823" lon="6.54747">
        <ele>1895.8000488281</ele>
        <time>2021-06-23T11:27:47.000Z</time>
      </trkpt>
      <trkpt lat="45.76824" lon="6.54752">
        <ele>1895.4000244141</ele>
        <time>2021-06-23T11:27:49.000Z</time>
      </trkpt>
      <trkpt lat="45.76825" lon="6.54758">
        <ele>1894.4000244141</ele>
        <time>2021-06-23T11:27:50.000Z</time>
      </trkpt>
      <trkpt lat="45.76825" lon="6.54764">
        <ele>1893.1999511719</ele>
        <time>2021-06-23T11:27:51.000Z</time>
      </trkpt>
      <trkpt lat="45.76824" lon="6.5477">
        <ele>1892.4000244141</ele>
        <time>2021-06-23T11:27:52.000Z</time>
      </trkpt>
      <trkpt lat="45.76823" lon="6.54776">
        <ele>1891.5999755859</ele>
        <time>2021-06-23T11:27:53.000Z</time>
      </trkpt>
      <trkpt lat="45.76823" lon="6.5478">
        <ele>1890.5999755859</ele>
        <time>2021-06-23T11:27:54.000Z</time>
      </trkpt>
      <trkpt lat="45.76824" lon="6.54792">
        <ele>1888.5999755859</ele>
        <time>2021-06-23T11:27:56.000Z</time>
      </trkpt>
      <trkpt lat="45.76822" lon="6.54796">
        <ele>1888</ele>
        <time>2021-06-23T11:27:57.000Z</time>
      </trkpt>
      <trkpt lat="45.76818" lon="6.54795">
        <ele>1887.1999511719</ele>
        <time>2021-06-23T11:27:58.000Z</time>
      </trkpt>
      <trkpt lat="45.76813" lon="6.54793">
        <ele>1886.1999511719</ele>
        <time>2021-06-23T11:27:59.000Z</time>
      </trkpt>
      <trkpt lat="45.76808" lon="6.54789">
        <ele>1885.4000244141</ele>
        <time>2021-06-23T11:28:00.000Z</time>
      </trkpt>
      <trkpt lat="45.76796" lon="6.54787">
        <ele>1884.4000244141</ele>
        <time>2021-06-23T11:28:02.000Z</time>
      </trkpt>
      <trkpt lat="45.76789" lon="6.54785">
        <ele>1884</ele>
        <time>2021-06-23T11:28:03.000Z</time>
      </trkpt>
      <trkpt lat="45.76783" lon="6.54782">
        <ele>1883.1999511719</ele>
        <time>2021-06-23T11:28:04.000Z</time>
      </trkpt>
      <trkpt lat="45.76773" lon="6.54779">
        <ele>1881.4000244141</ele>
        <time>2021-06-23T11:28:06.000Z</time>
      </trkpt>
      <trkpt lat="45.76769" lon="6.54781">
        <ele>1880.5999755859</ele>
        <time>2021-06-23T11:28:07.000Z</time>
      </trkpt>
      <trkpt lat="45.76766" lon="6.54784">
        <ele>1880.1999511719</ele>
        <time>2021-06-23T11:28:08.000Z</time>
      </trkpt>
      <trkpt lat="45.76762" lon="6.54785">
        <ele>1879.4000244141</ele>
        <time>2021-06-23T11:28:09.000Z</time>
      </trkpt>
      <trkpt lat="45.76757" lon="6.54786">
        <ele>1878.5999755859</ele>
        <time>2021-06-23T11:28:10.000Z</time>
      </trkpt>
      <trkpt lat="45.76752" lon="6.54788">
        <ele>1877.5999755859</ele>
        <time>2021-06-23T11:28:11.000Z</time>
      </trkpt>
      <trkpt lat="45.76746" lon="6.54792">
        <ele>1876.8000488281</ele>
        <time>2021-06-23T11:28:12.000Z</time>
      </trkpt>
      <trkpt lat="45.7674" lon="6.54794">
        <ele>1876.4000244141</ele>
        <time>2021-06-23T11:28:13.000Z</time>
      </trkpt>
      <trkpt lat="45.76729" lon="6.54795">
        <ele>1875.5999755859</ele>
        <time>2021-06-23T11:28:14.000Z</time>
      </trkpt>
      <trkpt lat="45.76723" lon="6.54797">
        <ele>1875.4000244141</ele>
        <time>2021-06-23T11:28:16.000Z</time>
      </trkpt>
      <trkpt lat="45.76711" lon="6.54802">
        <ele>1874.1999511719</ele>
        <time>2021-06-23T11:28:18.000Z</time>
      </trkpt>
      <trkpt lat="45.76705" lon="6.54805">
        <ele>1873</ele>
        <time>2021-06-23T11:28:19.000Z</time>
      </trkpt>
      <trkpt lat="45.76699" lon="6.5481">
        <ele>1872.4000244141</ele>
        <time>2021-06-23T11:28:20.000Z</time>
      </trkpt>
      <trkpt lat="45.76693" lon="6.54813">
        <ele>1872</ele>
        <time>2021-06-23T11:28:21.000Z</time>
      </trkpt>
      <trkpt lat="45.76687" lon="6.54817">
        <ele>1871.5999755859</ele>
        <time>2021-06-23T11:28:22.000Z</time>
      </trkpt>
      <trkpt lat="45.76682" lon="6.54822">
        <ele>1871.1999511719</ele>
        <time>2021-06-23T11:28:23.000Z</time>
      </trkpt>
      <trkpt lat="45.76676" lon="6.54827">
        <ele>1870.4000244141</ele>
        <time>2021-06-23T11:28:24.000Z</time>
      </trkpt>
      <trkpt lat="45.76669" lon="6.54827">
        <ele>1869.8000488281</ele>
        <time>2021-06-23T11:28:25.000Z</time>
      </trkpt>
      <trkpt lat="45.76663" lon="6.54827">
        <ele>1869</ele>
        <time>2021-06-23T11:28:26.000Z</time>
      </trkpt>
      <trkpt lat="45.76657" lon="6.54827">
        <ele>1868.5999755859</ele>
        <time>2021-06-23T11:28:27.000Z</time>
      </trkpt>
      <trkpt lat="45.7665" lon="6.54833">
        <ele>1868.1999511719</ele>
        <time>2021-06-23T11:28:29.000Z</time>
      </trkpt>
      <trkpt lat="45.76647" lon="6.54837">
        <ele>1866.8000488281</ele>
        <time>2021-06-23T11:28:30.000Z</time>
      </trkpt>
      <trkpt lat="45.76645" lon="6.54841">
        <ele>1865.8000488281</ele>
        <time>2021-06-23T11:28:31.000Z</time>
      </trkpt>
      <trkpt lat="45.76641" lon="6.54851">
        <ele>1864.5999755859</ele>
        <time>2021-06-23T11:28:33.000Z</time>
      </trkpt>
      <trkpt lat="45.76638" lon="6.54855">
        <ele>1863.8000488281</ele>
        <time>2021-06-23T11:28:34.000Z</time>
      </trkpt>
      <trkpt lat="45.76635" lon="6.54857">
        <ele>1863.4000244141</ele>
        <time>2021-06-23T11:28:35.000Z</time>
      </trkpt>
      <trkpt lat="45.76626" lon="6.54863">
        <ele>1862.8000488281</ele>
        <time>2021-06-23T11:28:37.000Z</time>
      </trkpt>
      <trkpt lat="45.76615" lon="6.54871">
        <ele>1862.4000244141</ele>
        <time>2021-06-23T11:28:39.000Z</time>
      </trkpt>
      <trkpt lat="45.76609" lon="6.54874">
        <ele>1862.1999511719</ele>
        <time>2021-06-23T11:28:40.000Z</time>
      </trkpt>
      <trkpt lat="45.76603" lon="6.54874">
        <ele>1862.1999511719</ele>
        <time>2021-06-23T11:28:41.000Z</time>
      </trkpt>
      <trkpt lat="45.76596" lon="6.54873">
        <ele>1862</ele>
        <time>2021-06-23T11:28:42.000Z</time>
      </trkpt>
      <trkpt lat="45.76582" lon="6.5487">
        <ele>1860.4000244141</ele>
        <time>2021-06-23T11:28:43.000Z</time>
      </trkpt>
      <trkpt lat="45.76574" lon="6.54868">
        <ele>1859.5999755859</ele>
        <time>2021-06-23T11:28:45.000Z</time>
      </trkpt>
      <trkpt lat="45.76567" lon="6.54868">
        <ele>1859.1999511719</ele>
        <time>2021-06-23T11:28:46.000Z</time>
      </trkpt>
      <trkpt lat="45.7656" lon="6.54867">
        <ele>1857.8000488281</ele>
        <time>2021-06-23T11:28:47.000Z</time>
      </trkpt>
      <trkpt lat="45.76549" lon="6.54866">
        <ele>1856.1999511719</ele>
        <time>2021-06-23T11:28:49.000Z</time>
      </trkpt>
      <trkpt lat="45.76534" lon="6.54853">
        <ele>1855</ele>
        <time>2021-06-23T11:28:52.000Z</time>
      </trkpt>
      <trkpt lat="45.76528" lon="6.54851">
        <ele>1854.4000244141</ele>
        <time>2021-06-23T11:28:53.000Z</time>
      </trkpt>
      <trkpt lat="45.76522" lon="6.5485">
        <ele>1853</ele>
        <time>2021-06-23T11:28:54.000Z</time>
      </trkpt>
      <trkpt lat="45.7651" lon="6.54848">
        <ele>1851.5999755859</ele>
        <time>2021-06-23T11:28:56.000Z</time>
      </trkpt>
      <trkpt lat="45.76498" lon="6.54847">
        <ele>1850.5999755859</ele>
        <time>2021-06-23T11:28:58.000Z</time>
      </trkpt>
      <trkpt lat="45.76493" lon="6.54846">
        <ele>1850.1999511719</ele>
        <time>2021-06-23T11:28:59.000Z</time>
      </trkpt>
      <trkpt lat="45.76485" lon="6.54841">
        <ele>1848.8000488281</ele>
        <time>2021-06-23T11:29:01.000Z</time>
      </trkpt>
      <trkpt lat="45.76481" lon="6.5484">
        <ele>1848.1999511719</ele>
        <time>2021-06-23T11:29:02.000Z</time>
      </trkpt>
      <trkpt lat="45.76476" lon="6.54839">
        <ele>1847.8000488281</ele>
        <time>2021-06-23T11:29:03.000Z</time>
      </trkpt>
      <trkpt lat="45.76471" lon="6.54838">
        <ele>1847.5999755859</ele>
        <time>2021-06-23T11:29:04.000Z</time>
      </trkpt>
      <trkpt lat="45.76466" lon="6.54837">
        <ele>1847.4000244141</ele>
        <time>2021-06-23T11:29:05.000Z</time>
      </trkpt>
      <trkpt lat="45.76462" lon="6.54838">
        <ele>1847.1999511719</ele>
        <time>2021-06-23T11:29:06.000Z</time>
      </trkpt>
      <trkpt lat="45.76454" lon="6.54839">
        <ele>1846</ele>
        <time>2021-06-23T11:29:08.000Z</time>
      </trkpt>
      <trkpt lat="45.76452" lon="6.54834">
        <ele>1845.5999755859</ele>
        <time>2021-06-23T11:29:09.000Z</time>
      </trkpt>
      <trkpt lat="45.76448" lon="6.5482">
        <ele>1845.4000244141</ele>
        <time>2021-06-23T11:29:11.000Z</time>
      </trkpt>
      <trkpt lat="45.76444" lon="6.54814">
        <ele>1845.1999511719</ele>
        <time>2021-06-23T11:29:12.000Z</time>
      </trkpt>
      <trkpt lat="45.7644" lon="6.5481">
        <ele>1845.1999511719</ele>
        <time>2021-06-23T11:29:13.000Z</time>
      </trkpt>
      <trkpt lat="45.76434" lon="6.54808">
        <ele>1845</ele>
        <time>2021-06-23T11:29:14.000Z</time>
      </trkpt>
      <trkpt lat="45.76429" lon="6.54806">
        <ele>1845</ele>
        <time>2021-06-23T11:29:15.000Z</time>
      </trkpt>
      <trkpt lat="45.76417" lon="6.54802">
        <ele>1844</ele>
        <time>2021-06-23T11:29:17.000Z</time>
      </trkpt>
      <trkpt lat="45.76397" lon="6.54794">
        <ele>1842.5999755859</ele>
        <time>2021-06-23T11:29:20.000Z</time>
      </trkpt>
      <trkpt lat="45.76383" lon="6.54787">
        <ele>1842.1999511719</ele>
        <time>2021-06-23T11:29:22.000Z</time>
      </trkpt>
      <trkpt lat="45.7637" lon="6.54777">
        <ele>1841.4000244141</ele>
        <time>2021-06-23T11:29:24.000Z</time>
      </trkpt>
      <trkpt lat="45.76358" lon="6.54767">
        <ele>1840.4000244141</ele>
        <time>2021-06-23T11:29:26.000Z</time>
      </trkpt>
      <trkpt lat="45.76348" lon="6.54757">
        <ele>1839.4000244141</ele>
        <time>2021-06-23T11:29:28.000Z</time>
      </trkpt>
      <trkpt lat="45.76342" lon="6.54753">
        <ele>1839</ele>
        <time>2021-06-23T11:29:29.000Z</time>
      </trkpt>
      <trkpt lat="45.76337" lon="6.54751">
        <ele>1838.4000244141</ele>
        <time>2021-06-23T11:29:30.000Z</time>
      </trkpt>
      <trkpt lat="45.76327" lon="6.54749">
        <ele>1837.4000244141</ele>
        <time>2021-06-23T11:29:32.000Z</time>
      </trkpt>
      <trkpt lat="45.76322" lon="6.54748">
        <ele>1837</ele>
        <time>2021-06-23T11:29:33.000Z</time>
      </trkpt>
      <trkpt lat="45.76309" lon="6.54746">
        <ele>1836.4000244141</ele>
        <time>2021-06-23T11:29:35.000Z</time>
      </trkpt>
      <trkpt lat="45.76305" lon="6.54745">
        <ele>1836.1999511719</ele>
        <time>2021-06-23T11:29:37.000Z</time>
      </trkpt>
      <trkpt lat="45.76297" lon="6.54743">
        <ele>1835.8000488281</ele>
        <time>2021-06-23T11:29:39.000Z</time>
      </trkpt>
      <trkpt lat="45.76292" lon="6.54744">
        <ele>1835.5999755859</ele>
        <time>2021-06-23T11:29:42.000Z</time>
      </trkpt>
      <trkpt lat="45.76292" lon="6.54745">
        <ele>1835.5999755859</ele>
        <time>2021-06-23T11:29:43.000Z</time>
      </trkpt>
      <trkpt lat="45.76292" lon="6.54745">
        <ele>1834.8000488281</ele>
        <time>2021-06-23T11:29:45.000Z</time>
      </trkpt>
      <trkpt lat="45.76293" lon="6.54746">
        <ele>1834.5999755859</ele>
        <time>2021-06-23T11:29:47.000Z</time>
      </trkpt>
      <trkpt lat="45.76293" lon="6.54746">
        <ele>1834.4000244141</ele>
        <time>2021-06-23T11:29:48.000Z</time>
      </trkpt>
      <trkpt lat="45.76294" lon="6.54747">
        <ele>1833.8000488281</ele>
        <time>2021-06-23T11:29:51.000Z</time>
      </trkpt>
      <trkpt lat="45.76294" lon="6.54747">
        <ele>1833.5999755859</ele>
        <time>2021-06-23T11:29:55.000Z</time>
      </trkpt>
      <trkpt lat="45.76295" lon="6.54747">
        <ele>1833.5999755859</ele>
        <time>2021-06-23T11:29:56.000Z</time>
      </trkpt>
      <trkpt lat="45.76295" lon="6.5475">
        <ele>1833.1999511719</ele>
        <time>2021-06-23T11:30:06.000Z</time>
      </trkpt>
      <trkpt lat="45.76295" lon="6.5475">
        <ele>1833.1999511719</ele>
        <time>2021-06-23T11:30:11.000Z</time>
      </trkpt>
      <trkpt lat="45.76295" lon="6.5475">
        <ele>1833.1999511719</ele>
        <time>2021-06-23T11:30:12.000Z</time>
      </trkpt>
      <trkpt lat="45.76296" lon="6.5475">
        <ele>1833</ele>
        <time>2021-06-23T11:30:19.000Z</time>
      </trkpt>
      <trkpt lat="45.76296" lon="6.5475">
        <ele>1833</ele>
        <time>2021-06-23T11:30:20.000Z</time>
      </trkpt>
      <trkpt lat="45.76296" lon="6.5475">
        <ele>1833</ele>
        <time>2021-06-23T11:30:21.000Z</time>
      </trkpt>
      <trkpt lat="45.76296" lon="6.5475">
        <ele>1833</ele>
        <time>2021-06-23T11:30:22.000Z</time>
      </trkpt>
      <trkpt lat="45.76296" lon="6.5475">
        <ele>1833</ele>
        <time>2021-06-23T11:30:25.000Z</time>
      </trkpt>
      <trkpt lat="45.76294" lon="6.5475">
        <ele>1833</ele>
        <time>2021-06-23T11:30:40.000Z</time>
      </trkpt>
      <trkpt lat="45.76294" lon="6.5475">
        <ele>1833</ele>
        <time>2021-06-23T11:30:52.000Z</time>
      </trkpt>
      <trkpt lat="45.76294" lon="6.5475">
        <ele>1833</ele>
        <time>2021-06-23T11:30:54.000Z</time>
      </trkpt>
      <trkpt lat="45.76292" lon="6.54748">
        <ele>1832.8000488281</ele>
        <time>2021-06-23T11:30:58.000Z</time>
      </trkpt>
      <trkpt lat="45.76289" lon="6.54749">
        <ele>1832.8000488281</ele>
        <time>2021-06-23T11:31:00.000Z</time>
      </trkpt>
      <trkpt lat="45.76283" lon="6.54754">
        <ele>1832.8000488281</ele>
        <time>2021-06-23T11:31:01.000Z</time>
      </trkpt>
      <trkpt lat="45.7628" lon="6.54758">
        <ele>1832.8000488281</ele>
        <time>2021-06-23T11:31:03.000Z</time>
      </trkpt>
      <trkpt lat="45.7627" lon="6.54774">
        <ele>1832.5999755859</ele>
        <time>2021-06-23T11:31:06.000Z</time>
      </trkpt>
      <trkpt lat="45.76267" lon="6.54781">
        <ele>1832.5999755859</ele>
        <time>2021-06-23T11:31:07.000Z</time>
      </trkpt>
      <trkpt lat="45.76264" lon="6.54788">
        <ele>1832.4000244141</ele>
        <time>2021-06-23T11:31:08.000Z</time>
      </trkpt>
      <trkpt lat="45.76256" lon="6.5481">
        <ele>1831.8000488281</ele>
        <time>2021-06-23T11:31:11.000Z</time>
      </trkpt>
      <trkpt lat="45.76253" lon="6.54817">
        <ele>1831.5999755859</ele>
        <time>2021-06-23T11:31:12.000Z</time>
      </trkpt>
      <trkpt lat="45.76244" lon="6.54847">
        <ele>1830.5999755859</ele>
        <time>2021-06-23T11:31:16.000Z</time>
      </trkpt>
      <trkpt lat="45.76239" lon="6.54864">
        <ele>1830.1999511719</ele>
        <time>2021-06-23T11:31:18.000Z</time>
      </trkpt>
      <trkpt lat="45.76233" lon="6.5489">
        <ele>1829.5999755859</ele>
        <time>2021-06-23T11:31:21.000Z</time>
      </trkpt>
      <trkpt lat="45.76231" lon="6.54899">
        <ele>1829.1999511719</ele>
        <time>2021-06-23T11:31:22.000Z</time>
      </trkpt>
      <trkpt lat="45.76228" lon="6.54908">
        <ele>1829</ele>
        <time>2021-06-23T11:31:23.000Z</time>
      </trkpt>
      <trkpt lat="45.76226" lon="6.54917">
        <ele>1829</ele>
        <time>2021-06-23T11:31:24.000Z</time>
      </trkpt>
      <trkpt lat="45.76221" lon="6.54934">
        <ele>1828.4000244141</ele>
        <time>2021-06-23T11:31:26.000Z</time>
      </trkpt>
      <trkpt lat="45.76216" lon="6.5495">
        <ele>1827.1999511719</ele>
        <time>2021-06-23T11:31:28.000Z</time>
      </trkpt>
      <trkpt lat="45.76214" lon="6.54958">
        <ele>1825.5999755859</ele>
        <time>2021-06-23T11:31:29.000Z</time>
      </trkpt>
      <trkpt lat="45.7621" lon="6.54971">
        <ele>1824.1999511719</ele>
        <time>2021-06-23T11:31:31.000Z</time>
      </trkpt>
      <trkpt lat="45.76208" lon="6.54976">
        <ele>1823.5999755859</ele>
        <time>2021-06-23T11:31:32.000Z</time>
      </trkpt>
      <trkpt lat="45.76206" lon="6.54981">
        <ele>1823</ele>
        <time>2021-06-23T11:31:33.000Z</time>
      </trkpt>
      <trkpt lat="45.76204" lon="6.54986">
        <ele>1822.8000488281</ele>
        <time>2021-06-23T11:31:34.000Z</time>
      </trkpt>
      <trkpt lat="45.76196" lon="6.55007">
        <ele>1822</ele>
        <time>2021-06-23T11:31:38.000Z</time>
      </trkpt>
      <trkpt lat="45.76194" lon="6.55012">
        <ele>1821.5999755859</ele>
        <time>2021-06-23T11:31:39.000Z</time>
      </trkpt>
      <trkpt lat="45.76188" lon="6.55026">
        <ele>1821</ele>
        <time>2021-06-23T11:31:42.000Z</time>
      </trkpt>
      <trkpt lat="45.76184" lon="6.55037">
        <ele>1820.5999755859</ele>
        <time>2021-06-23T11:31:45.000Z</time>
      </trkpt>
      <trkpt lat="45.76181" lon="6.55044">
        <ele>1819.8000488281</ele>
        <time>2021-06-23T11:31:47.000Z</time>
      </trkpt>
      <trkpt lat="45.76169" lon="6.55067">
        <ele>1818.8000488281</ele>
        <time>2021-06-23T11:31:53.000Z</time>
      </trkpt>
      <trkpt lat="45.76167" lon="6.5507">
        <ele>1818.5999755859</ele>
        <time>2021-06-23T11:31:54.000Z</time>
      </trkpt>
      <trkpt lat="45.76162" lon="6.55078">
        <ele>1818.1999511719</ele>
        <time>2021-06-23T11:31:56.000Z</time>
      </trkpt>
      <trkpt lat="45.76155" lon="6.55086">
        <ele>1817.4000244141</ele>
        <time>2021-06-23T11:31:57.000Z</time>
      </trkpt>
      <trkpt lat="45.76155" lon="6.55086">
        <ele>1817.4000244141</ele>
        <time>2021-06-23T11:31:58.000Z</time>
      </trkpt>
      <trkpt lat="45.7615" lon="6.5509">
        <ele>1817.1999511719</ele>
        <time>2021-06-23T11:31:59.000Z</time>
      </trkpt>
      <trkpt lat="45.76134" lon="6.55101">
        <ele>1816.5999755859</ele>
        <time>2021-06-23T11:32:02.000Z</time>
      </trkpt>
      <trkpt lat="45.76129" lon="6.55106">
        <ele>1816.1999511719</ele>
        <time>2021-06-23T11:32:03.000Z</time>
      </trkpt>
      <trkpt lat="45.76118" lon="6.55121">
        <ele>1815.5999755859</ele>
        <time>2021-06-23T11:32:05.000Z</time>
      </trkpt>
      <trkpt lat="45.76113" lon="6.5513">
        <ele>1815</ele>
        <time>2021-06-23T11:32:06.000Z</time>
      </trkpt>
      <trkpt lat="45.76101" lon="6.55156">
        <ele>1814</ele>
        <time>2021-06-23T11:32:09.000Z</time>
      </trkpt>
      <trkpt lat="45.76099" lon="6.55164">
        <ele>1813.5999755859</ele>
        <time>2021-06-23T11:32:10.000Z</time>
      </trkpt>
      <trkpt lat="45.76097" lon="6.55171">
        <ele>1812.8000488281</ele>
        <time>2021-06-23T11:32:11.000Z</time>
      </trkpt>
      <trkpt lat="45.76095" lon="6.55177">
        <ele>1812.1999511719</ele>
        <time>2021-06-23T11:32:12.000Z</time>
      </trkpt>
      <trkpt lat="45.76094" lon="6.55183">
        <ele>1811.8000488281</ele>
        <time>2021-06-23T11:32:13.000Z</time>
      </trkpt>
      <trkpt lat="45.76093" lon="6.55187">
        <ele>1811.5999755859</ele>
        <time>2021-06-23T11:32:14.000Z</time>
      </trkpt>
      <trkpt lat="45.76088" lon="6.55204">
        <ele>1811.4000244141</ele>
        <time>2021-06-23T11:32:18.000Z</time>
      </trkpt>
      <trkpt lat="45.76086" lon="6.55215">
        <ele>1811.1999511719</ele>
        <time>2021-06-23T11:32:21.000Z</time>
      </trkpt>
      <trkpt lat="45.76076" lon="6.55233">
        <ele>1810.8000488281</ele>
        <time>2021-06-23T11:32:26.000Z</time>
      </trkpt>
      <trkpt lat="45.7607" lon="6.55251">
        <ele>1810.5999755859</ele>
        <time>2021-06-23T11:32:30.000Z</time>
      </trkpt>
      <trkpt lat="45.76067" lon="6.55264">
        <ele>1810.1999511719</ele>
        <time>2021-06-23T11:32:33.000Z</time>
      </trkpt>
      <trkpt lat="45.76064" lon="6.55274">
        <ele>1809.4000244141</ele>
        <time>2021-06-23T11:32:36.000Z</time>
      </trkpt>
      <trkpt lat="45.76062" lon="6.55282">
        <ele>1809</ele>
        <time>2021-06-23T11:32:39.000Z</time>
      </trkpt>
      <trkpt lat="45.7606" lon="6.55288">
        <ele>1808.8000488281</ele>
        <time>2021-06-23T11:32:42.000Z</time>
      </trkpt>
      <trkpt lat="45.7606" lon="6.5529">
        <ele>1808.8000488281</ele>
        <time>2021-06-23T11:32:43.000Z</time>
      </trkpt>
      <trkpt lat="45.76057" lon="6.55302">
        <ele>1808.4000244141</ele>
        <time>2021-06-23T11:32:47.000Z</time>
      </trkpt>
      <trkpt lat="45.76053" lon="6.55312">
        <ele>1808.4000244141</ele>
        <time>2021-06-23T11:32:51.000Z</time>
      </trkpt>
      <trkpt lat="45.76052" lon="6.55314">
        <ele>1808.4000244141</ele>
        <time>2021-06-23T11:32:52.000Z</time>
      </trkpt>
      <trkpt lat="45.7605" lon="6.55319">
        <ele>1808.4000244141</ele>
        <time>2021-06-23T11:32:54.000Z</time>
      </trkpt>
      <trkpt lat="45.76043" lon="6.55333">
        <ele>1808.1999511719</ele>
        <time>2021-06-23T11:33:01.000Z</time>
      </trkpt>
      <trkpt lat="45.76041" lon="6.55341">
        <ele>1808.1999511719</ele>
        <time>2021-06-23T11:33:04.000Z</time>
      </trkpt>
      <trkpt lat="45.7604" lon="6.55346">
        <ele>1808.1999511719</ele>
        <time>2021-06-23T11:33:06.000Z</time>
      </trkpt>
      <trkpt lat="45.76039" lon="6.55351">
        <ele>1808.1999511719</ele>
        <time>2021-06-23T11:33:08.000Z</time>
      </trkpt>
      <trkpt lat="45.76039" lon="6.55355">
        <ele>1808</ele>
        <time>2021-06-23T11:33:09.000Z</time>
      </trkpt>
      <trkpt lat="45.76038" lon="6.55364">
        <ele>1807.8000488281</ele>
        <time>2021-06-23T11:33:11.000Z</time>
      </trkpt>
      <trkpt lat="45.76038" lon="6.55374">
        <ele>1807.8000488281</ele>
        <time>2021-06-23T11:33:13.000Z</time>
      </trkpt>
      <trkpt lat="45.76038" lon="6.55383">
        <ele>1807.8000488281</ele>
        <time>2021-06-23T11:33:15.000Z</time>
      </trkpt>
      <trkpt lat="45.7604" lon="6.55398">
        <ele>1807.5999755859</ele>
        <time>2021-06-23T11:33:18.000Z</time>
      </trkpt>
      <trkpt lat="45.76041" lon="6.55408">
        <ele>1807.1999511719</ele>
        <time>2021-06-23T11:33:20.000Z</time>
      </trkpt>
      <trkpt lat="45.76043" lon="6.55436">
        <ele>1806.4000244141</ele>
        <time>2021-06-23T11:33:26.000Z</time>
      </trkpt>
      <trkpt lat="45.76042" lon="6.55441">
        <ele>1806.4000244141</ele>
        <time>2021-06-23T11:33:27.000Z</time>
      </trkpt>
      <trkpt lat="45.76041" lon="6.55445">
        <ele>1806.4000244141</ele>
        <time>2021-06-23T11:33:28.000Z</time>
      </trkpt>
      <trkpt lat="45.76037" lon="6.55453">
        <ele>1806.4000244141</ele>
        <time>2021-06-23T11:33:29.000Z</time>
      </trkpt>
      <trkpt lat="45.76037" lon="6.55453">
        <ele>1806.4000244141</ele>
        <time>2021-06-23T11:33:30.000Z</time>
      </trkpt>
      <trkpt lat="45.76034" lon="6.55456">
        <ele>1806.1999511719</ele>
        <time>2021-06-23T11:33:31.000Z</time>
      </trkpt>
      <trkpt lat="45.76012" lon="6.55473">
        <ele>1806.1999511719</ele>
        <time>2021-06-23T11:33:37.000Z</time>
      </trkpt>
      <trkpt lat="45.76008" lon="6.55478">
        <ele>1806.1999511719</ele>
        <time>2021-06-23T11:33:38.000Z</time>
      </trkpt>
      <trkpt lat="45.76004" lon="6.55493">
        <ele>1806</ele>
        <time>2021-06-23T11:33:41.000Z</time>
      </trkpt>
      <trkpt lat="45.76005" lon="6.55523">
        <ele>1806</ele>
        <time>2021-06-23T11:33:47.000Z</time>
      </trkpt>
      <trkpt lat="45.76005" lon="6.55528">
        <ele>1805.8000488281</ele>
        <time>2021-06-23T11:33:48.000Z</time>
      </trkpt>
      <trkpt lat="45.76005" lon="6.55533">
        <ele>1805.8000488281</ele>
        <time>2021-06-23T11:33:49.000Z</time>
      </trkpt>
      <trkpt lat="45.76005" lon="6.55543">
        <ele>1805.8000488281</ele>
        <time>2021-06-23T11:33:51.000Z</time>
      </trkpt>
      <trkpt lat="45.76005" lon="6.55548">
        <ele>1805.8000488281</ele>
        <time>2021-06-23T11:33:52.000Z</time>
      </trkpt>
      <trkpt lat="45.76004" lon="6.55553">
        <ele>1805.8000488281</ele>
        <time>2021-06-23T11:33:53.000Z</time>
      </trkpt>
      <trkpt lat="45.76004" lon="6.55567">
        <ele>1806</ele>
        <time>2021-06-23T11:33:56.000Z</time>
      </trkpt>
      <trkpt lat="45.76006" lon="6.55591">
        <ele>1806</ele>
        <time>2021-06-23T11:34:01.000Z</time>
      </trkpt>
      <trkpt lat="45.76008" lon="6.55603">
        <ele>1806.1999511719</ele>
        <time>2021-06-23T11:34:04.000Z</time>
      </trkpt>
      <trkpt lat="45.76008" lon="6.55608">
        <ele>1806.1999511719</ele>
        <time>2021-06-23T11:34:05.000Z</time>
      </trkpt>
      <trkpt lat="45.76009" lon="6.55612">
        <ele>1806.1999511719</ele>
        <time>2021-06-23T11:34:06.000Z</time>
      </trkpt>
      <trkpt lat="45.76009" lon="6.55625">
        <ele>1806.1999511719</ele>
        <time>2021-06-23T11:34:09.000Z</time>
      </trkpt>
      <trkpt lat="45.76009" lon="6.55634">
        <ele>1806.1999511719</ele>
        <time>2021-06-23T11:34:11.000Z</time>
      </trkpt>
      <trkpt lat="45.7601" lon="6.55661">
        <ele>1806.4000244141</ele>
        <time>2021-06-23T11:34:17.000Z</time>
      </trkpt>
      <trkpt lat="45.7601" lon="6.55665">
        <ele>1806.5999755859</ele>
        <time>2021-06-23T11:34:18.000Z</time>
      </trkpt>
      <trkpt lat="45.7601" lon="6.55695">
        <ele>1807.1999511719</ele>
        <time>2021-06-23T11:34:25.000Z</time>
      </trkpt>
      <trkpt lat="45.76009" lon="6.55704">
        <ele>1807.1999511719</ele>
        <time>2021-06-23T11:34:27.000Z</time>
      </trkpt>
      <trkpt lat="45.76003" lon="6.55723">
        <ele>1807.4000244141</ele>
        <time>2021-06-23T11:34:32.000Z</time>
      </trkpt>
      <trkpt lat="45.75994" lon="6.55735">
        <ele>1807.8000488281</ele>
        <time>2021-06-23T11:34:36.000Z</time>
      </trkpt>
      <trkpt lat="45.75992" lon="6.55738">
        <ele>1807.8000488281</ele>
        <time>2021-06-23T11:34:37.000Z</time>
      </trkpt>
      <trkpt lat="45.75989" lon="6.55742">
        <ele>1808</ele>
        <time>2021-06-23T11:34:38.000Z</time>
      </trkpt>
      <trkpt lat="45.75982" lon="6.55752">
        <ele>1808</ele>
        <time>2021-06-23T11:34:41.000Z</time>
      </trkpt>
      <trkpt lat="45.75968" lon="6.55771">
        <ele>1808</ele>
        <time>2021-06-23T11:34:47.000Z</time>
      </trkpt>
      <trkpt lat="45.75959" lon="6.55784">
        <ele>1808</ele>
        <time>2021-06-23T11:34:51.000Z</time>
      </trkpt>
      <trkpt lat="45.75957" lon="6.55788">
        <ele>1808</ele>
        <time>2021-06-23T11:34:52.000Z</time>
      </trkpt>
      <trkpt lat="45.75954" lon="6.55796">
        <ele>1808</ele>
        <time>2021-06-23T11:34:54.000Z</time>
      </trkpt>
      <trkpt lat="45.75951" lon="6.55804">
        <ele>1808.1999511719</ele>
        <time>2021-06-23T11:34:56.000Z</time>
      </trkpt>
      <trkpt lat="45.75945" lon="6.55816">
        <ele>1808.1999511719</ele>
        <time>2021-06-23T11:34:59.000Z</time>
      </trkpt>
      <trkpt lat="45.75937" lon="6.55831">
        <ele>1808.1999511719</ele>
        <time>2021-06-23T11:35:03.000Z</time>
      </trkpt>
      <trkpt lat="45.75924" lon="6.5586">
        <ele>1807.8000488281</ele>
        <time>2021-06-23T11:35:09.000Z</time>
      </trkpt>
      <trkpt lat="45.75922" lon="6.55865">
        <ele>1807.8000488281</ele>
        <time>2021-06-23T11:35:10.000Z</time>
      </trkpt>
      <trkpt lat="45.75921" lon="6.55871">
        <ele>1807.8000488281</ele>
        <time>2021-06-23T11:35:11.000Z</time>
      </trkpt>
      <trkpt lat="45.7592" lon="6.55877">
        <ele>1807.8000488281</ele>
        <time>2021-06-23T11:35:12.000Z</time>
      </trkpt>
      <trkpt lat="45.75913" lon="6.55909">
        <ele>1807.1999511719</ele>
        <time>2021-06-23T11:35:18.000Z</time>
      </trkpt>
      <trkpt lat="45.75909" lon="6.5593">
        <ele>1806.8000488281</ele>
        <time>2021-06-23T11:35:22.000Z</time>
      </trkpt>
      <trkpt lat="45.75908" lon="6.55947">
        <ele>1806.4000244141</ele>
        <time>2021-06-23T11:35:25.000Z</time>
      </trkpt>
      <trkpt lat="45.7591" lon="6.55964">
        <ele>1806.1999511719</ele>
        <time>2021-06-23T11:35:28.000Z</time>
      </trkpt>
      <trkpt lat="45.75911" lon="6.55969">
        <ele>1806</ele>
        <time>2021-06-23T11:35:29.000Z</time>
      </trkpt>
      <trkpt lat="45.75914" lon="6.55981">
        <ele>1805.5999755859</ele>
        <time>2021-06-23T11:35:31.000Z</time>
      </trkpt>
      <trkpt lat="45.7592" lon="6.55998">
        <ele>1805</ele>
        <time>2021-06-23T11:35:34.000Z</time>
      </trkpt>
      <trkpt lat="45.75926" lon="6.56017">
        <ele>1804.5999755859</ele>
        <time>2021-06-23T11:35:37.000Z</time>
      </trkpt>
      <trkpt lat="45.75933" lon="6.56035">
        <ele>1804.1999511719</ele>
        <time>2021-06-23T11:35:40.000Z</time>
      </trkpt>
      <trkpt lat="45.75937" lon="6.56047">
        <ele>1804</ele>
        <time>2021-06-23T11:35:42.000Z</time>
      </trkpt>
      <trkpt lat="45.75941" lon="6.5606">
        <ele>1803.1999511719</ele>
        <time>2021-06-23T11:35:45.000Z</time>
      </trkpt>
      <trkpt lat="45.75941" lon="6.56062">
        <ele>1802.5999755859</ele>
        <time>2021-06-23T11:35:46.000Z</time>
      </trkpt>
      <trkpt lat="45.75942" lon="6.56066">
        <ele>1802</ele>
        <time>2021-06-23T11:35:48.000Z</time>
      </trkpt>
      <trkpt lat="45.75942" lon="6.56068">
        <ele>1801.4000244141</ele>
        <time>2021-06-23T11:35:50.000Z</time>
      </trkpt>
      <trkpt lat="45.75942" lon="6.56073">
        <ele>1801</ele>
        <time>2021-06-23T11:35:53.000Z</time>
      </trkpt>
      <trkpt lat="45.75941" lon="6.56076">
        <ele>1800.5999755859</ele>
        <time>2021-06-23T11:35:56.000Z</time>
      </trkpt>
      <trkpt lat="45.75941" lon="6.56076">
        <ele>1800.4000244141</ele>
        <time>2021-06-23T11:35:57.000Z</time>
      </trkpt>
      <trkpt lat="45.7594" lon="6.56076">
        <ele>1799.8000488281</ele>
        <time>2021-06-23T11:36:02.000Z</time>
      </trkpt>
      <trkpt lat="45.75939" lon="6.56075">
        <ele>1799.5999755859</ele>
        <time>2021-06-23T11:36:06.000Z</time>
      </trkpt>
      <trkpt lat="45.7594" lon="6.56075">
        <ele>1799.5999755859</ele>
        <time>2021-06-23T11:36:08.000Z</time>
      </trkpt>
      <trkpt lat="45.75939" lon="6.56075">
        <ele>1799.5999755859</ele>
        <time>2021-06-23T11:36:16.000Z</time>
      </trkpt>
      <trkpt lat="45.75938" lon="6.56075">
        <ele>1799.5999755859</ele>
        <time>2021-06-23T11:36:21.000Z</time>
      </trkpt>
      <trkpt lat="45.75939" lon="6.56078">
        <ele>1799.5999755859</ele>
        <time>2021-06-23T11:36:23.000Z</time>
      </trkpt>
      <trkpt lat="45.75941" lon="6.56085">
        <ele>1799.5999755859</ele>
        <time>2021-06-23T11:36:26.000Z</time>
      </trkpt>
      <trkpt lat="45.75942" lon="6.56096">
        <ele>1799.5999755859</ele>
        <time>2021-06-23T11:36:29.000Z</time>
      </trkpt>
      <trkpt lat="45.75943" lon="6.56107">
        <ele>1799.4000244141</ele>
        <time>2021-06-23T11:36:31.000Z</time>
      </trkpt>
      <trkpt lat="45.75943" lon="6.56114">
        <ele>1799.1999511719</ele>
        <time>2021-06-23T11:36:32.000Z</time>
      </trkpt>
      <trkpt lat="45.75941" lon="6.5613">
        <ele>1799</ele>
        <time>2021-06-23T11:36:33.000Z</time>
      </trkpt>
      <trkpt lat="45.75935" lon="6.5616">
        <ele>1798.1999511719</ele>
        <time>2021-06-23T11:36:37.000Z</time>
      </trkpt>
      <trkpt lat="45.75933" lon="6.56171">
        <ele>1797.8000488281</ele>
        <time>2021-06-23T11:36:38.000Z</time>
      </trkpt>
      <trkpt lat="45.75931" lon="6.56192">
        <ele>1797.4000244141</ele>
        <time>2021-06-23T11:36:40.000Z</time>
      </trkpt>
      <trkpt lat="45.75931" lon="6.56212">
        <ele>1797</ele>
        <time>2021-06-23T11:36:42.000Z</time>
      </trkpt>
      <trkpt lat="45.75931" lon="6.56221">
        <ele>1796.4000244141</ele>
        <time>2021-06-23T11:36:43.000Z</time>
      </trkpt>
      <trkpt lat="45.75932" lon="6.5623">
        <ele>1795</ele>
        <time>2021-06-23T11:36:44.000Z</time>
      </trkpt>
      <trkpt lat="45.75934" lon="6.56239">
        <ele>1793.1999511719</ele>
        <time>2021-06-23T11:36:45.000Z</time>
      </trkpt>
      <trkpt lat="45.75936" lon="6.56255">
        <ele>1791.1999511719</ele>
        <time>2021-06-23T11:36:47.000Z</time>
      </trkpt>
      <trkpt lat="45.75935" lon="6.56262">
        <ele>1790.4000244141</ele>
        <time>2021-06-23T11:36:48.000Z</time>
      </trkpt>
      <trkpt lat="45.75932" lon="6.56267">
        <ele>1790</ele>
        <time>2021-06-23T11:36:49.000Z</time>
      </trkpt>
      <trkpt lat="45.75928" lon="6.5627">
        <ele>1789.4000244141</ele>
        <time>2021-06-23T11:36:50.000Z</time>
      </trkpt>
      <trkpt lat="45.75923" lon="6.5627">
        <ele>1787.5999755859</ele>
        <time>2021-06-23T11:36:51.000Z</time>
      </trkpt>
      <trkpt lat="45.75917" lon="6.56269">
        <ele>1786.5999755859</ele>
        <time>2021-06-23T11:36:52.000Z</time>
      </trkpt>
      <trkpt lat="45.75912" lon="6.5627">
        <ele>1784.4000244141</ele>
        <time>2021-06-23T11:36:53.000Z</time>
      </trkpt>
      <trkpt lat="45.75907" lon="6.56271">
        <ele>1783.1999511719</ele>
        <time>2021-06-23T11:36:54.000Z</time>
      </trkpt>
      <trkpt lat="45.75903" lon="6.56275">
        <ele>1782.4000244141</ele>
        <time>2021-06-23T11:36:55.000Z</time>
      </trkpt>
      <trkpt lat="45.75899" lon="6.56281">
        <ele>1782</ele>
        <time>2021-06-23T11:36:56.000Z</time>
      </trkpt>
      <trkpt lat="45.75896" lon="6.56288">
        <ele>1780.8000488281</ele>
        <time>2021-06-23T11:36:57.000Z</time>
      </trkpt>
      <trkpt lat="45.75893" lon="6.56295">
        <ele>1780</ele>
        <time>2021-06-23T11:36:58.000Z</time>
      </trkpt>
      <trkpt lat="45.7589" lon="6.56303">
        <ele>1779.1999511719</ele>
        <time>2021-06-23T11:36:59.000Z</time>
      </trkpt>
      <trkpt lat="45.75882" lon="6.56319">
        <ele>1777.4000244141</ele>
        <time>2021-06-23T11:37:01.000Z</time>
      </trkpt>
      <trkpt lat="45.75875" lon="6.56336">
        <ele>1775.1999511719</ele>
        <time>2021-06-23T11:37:03.000Z</time>
      </trkpt>
      <trkpt lat="45.75872" lon="6.56343">
        <ele>1773</ele>
        <time>2021-06-23T11:37:04.000Z</time>
      </trkpt>
      <trkpt lat="45.75869" lon="6.56351">
        <ele>1773</ele>
        <time>2021-06-23T11:37:05.000Z</time>
      </trkpt>
      <trkpt lat="45.75866" lon="6.56358">
        <ele>1771.4000244141</ele>
        <time>2021-06-23T11:37:06.000Z</time>
      </trkpt>
      <trkpt lat="45.75863" lon="6.56364">
        <ele>1770</ele>
        <time>2021-06-23T11:37:07.000Z</time>
      </trkpt>
      <trkpt lat="45.7586" lon="6.56369">
        <ele>1769</ele>
        <time>2021-06-23T11:37:08.000Z</time>
      </trkpt>
      <trkpt lat="45.75857" lon="6.56372">
        <ele>1768.1999511719</ele>
        <time>2021-06-23T11:37:09.000Z</time>
      </trkpt>
      <trkpt lat="45.75853" lon="6.56373">
        <ele>1767.8000488281</ele>
        <time>2021-06-23T11:37:10.000Z</time>
      </trkpt>
      <trkpt lat="45.75848" lon="6.56374">
        <ele>1767.1999511719</ele>
        <time>2021-06-23T11:37:11.000Z</time>
      </trkpt>
      <trkpt lat="45.75843" lon="6.56373">
        <ele>1765.8000488281</ele>
        <time>2021-06-23T11:37:12.000Z</time>
      </trkpt>
      <trkpt lat="45.75837" lon="6.56372">
        <ele>1764.1999511719</ele>
        <time>2021-06-23T11:37:13.000Z</time>
      </trkpt>
      <trkpt lat="45.75832" lon="6.56371">
        <ele>1762.5999755859</ele>
        <time>2021-06-23T11:37:14.000Z</time>
      </trkpt>
      <trkpt lat="45.75826" lon="6.56371">
        <ele>1761.5999755859</ele>
        <time>2021-06-23T11:37:15.000Z</time>
      </trkpt>
      <trkpt lat="45.7582" lon="6.56373">
        <ele>1760.4000244141</ele>
        <time>2021-06-23T11:37:16.000Z</time>
      </trkpt>
      <trkpt lat="45.75814" lon="6.56374">
        <ele>1759.8000488281</ele>
        <time>2021-06-23T11:37:17.000Z</time>
      </trkpt>
      <trkpt lat="45.75808" lon="6.56376">
        <ele>1759.5999755859</ele>
        <time>2021-06-23T11:37:18.000Z</time>
      </trkpt>
      <trkpt lat="45.75801" lon="6.56379">
        <ele>1758.8000488281</ele>
        <time>2021-06-23T11:37:19.000Z</time>
      </trkpt>
      <trkpt lat="45.75787" lon="6.56383">
        <ele>1756.8000488281</ele>
        <time>2021-06-23T11:37:21.000Z</time>
      </trkpt>
      <trkpt lat="45.75773" lon="6.56387">
        <ele>1755.1999511719</ele>
        <time>2021-06-23T11:37:23.000Z</time>
      </trkpt>
      <trkpt lat="45.75765" lon="6.56389">
        <ele>1753.1999511719</ele>
        <time>2021-06-23T11:37:24.000Z</time>
      </trkpt>
      <trkpt lat="45.75758" lon="6.56392">
        <ele>1752.1999511719</ele>
        <time>2021-06-23T11:37:25.000Z</time>
      </trkpt>
      <trkpt lat="45.75742" lon="6.56399">
        <ele>1750</ele>
        <time>2021-06-23T11:37:27.000Z</time>
      </trkpt>
      <trkpt lat="45.75728" lon="6.56405">
        <ele>1748.4000244141</ele>
        <time>2021-06-23T11:37:29.000Z</time>
      </trkpt>
      <trkpt lat="45.7572" lon="6.56407">
        <ele>1746</ele>
        <time>2021-06-23T11:37:30.000Z</time>
      </trkpt>
      <trkpt lat="45.75713" lon="6.56409">
        <ele>1744.5999755859</ele>
        <time>2021-06-23T11:37:31.000Z</time>
      </trkpt>
      <trkpt lat="45.75706" lon="6.56409">
        <ele>1742.5999755859</ele>
        <time>2021-06-23T11:37:32.000Z</time>
      </trkpt>
      <trkpt lat="45.75699" lon="6.56409">
        <ele>1741.1999511719</ele>
        <time>2021-06-23T11:37:33.000Z</time>
      </trkpt>
      <trkpt lat="45.75691" lon="6.56407">
        <ele>1737</ele>
        <time>2021-06-23T11:37:34.000Z</time>
      </trkpt>
      <trkpt lat="45.75677" lon="6.56405">
        <ele>1735.1999511719</ele>
        <time>2021-06-23T11:37:36.000Z</time>
      </trkpt>
      <trkpt lat="45.7567" lon="6.56405">
        <ele>1732.8000488281</ele>
        <time>2021-06-23T11:37:37.000Z</time>
      </trkpt>
      <trkpt lat="45.75663" lon="6.56407">
        <ele>1731.1999511719</ele>
        <time>2021-06-23T11:37:38.000Z</time>
      </trkpt>
      <trkpt lat="45.75657" lon="6.56409">
        <ele>1729.4000244141</ele>
        <time>2021-06-23T11:37:39.000Z</time>
      </trkpt>
      <trkpt lat="45.7565" lon="6.56412">
        <ele>1728</ele>
        <time>2021-06-23T11:37:40.000Z</time>
      </trkpt>
      <trkpt lat="45.75643" lon="6.56415">
        <ele>1726.8000488281</ele>
        <time>2021-06-23T11:37:41.000Z</time>
      </trkpt>
      <trkpt lat="45.75636" lon="6.56419">
        <ele>1725.5999755859</ele>
        <time>2021-06-23T11:37:42.000Z</time>
      </trkpt>
      <trkpt lat="45.75629" lon="6.56422">
        <ele>1723.1999511719</ele>
        <time>2021-06-23T11:37:43.000Z</time>
      </trkpt>
      <trkpt lat="45.75621" lon="6.56426">
        <ele>1722</ele>
        <time>2021-06-23T11:37:44.000Z</time>
      </trkpt>
      <trkpt lat="45.75614" lon="6.5643">
        <ele>1721</ele>
        <time>2021-06-23T11:37:45.000Z</time>
      </trkpt>
      <trkpt lat="45.75607" lon="6.56433">
        <ele>1719.8000488281</ele>
        <time>2021-06-23T11:37:46.000Z</time>
      </trkpt>
      <trkpt lat="45.756" lon="6.56436">
        <ele>1718.8000488281</ele>
        <time>2021-06-23T11:37:47.000Z</time>
      </trkpt>
      <trkpt lat="45.75593" lon="6.56437">
        <ele>1717.1999511719</ele>
        <time>2021-06-23T11:37:48.000Z</time>
      </trkpt>
      <trkpt lat="45.75585" lon="6.56439">
        <ele>1716</ele>
        <time>2021-06-23T11:37:49.000Z</time>
      </trkpt>
      <trkpt lat="45.75577" lon="6.56439">
        <ele>1714.5999755859</ele>
        <time>2021-06-23T11:37:50.000Z</time>
      </trkpt>
      <trkpt lat="45.75568" lon="6.56438">
        <ele>1713.4000244141</ele>
        <time>2021-06-23T11:37:51.000Z</time>
      </trkpt>
      <trkpt lat="45.7556" lon="6.56437">
        <ele>1711.8000488281</ele>
        <time>2021-06-23T11:37:52.000Z</time>
      </trkpt>
      <trkpt lat="45.75552" lon="6.56435">
        <ele>1710.1999511719</ele>
        <time>2021-06-23T11:37:53.000Z</time>
      </trkpt>
      <trkpt lat="45.75545" lon="6.56434">
        <ele>1707.5999755859</ele>
        <time>2021-06-23T11:37:54.000Z</time>
      </trkpt>
      <trkpt lat="45.7554" lon="6.56434">
        <ele>1706.1999511719</ele>
        <time>2021-06-23T11:37:55.000Z</time>
      </trkpt>
      <trkpt lat="45.75535" lon="6.56436">
        <ele>1704.5999755859</ele>
        <time>2021-06-23T11:37:56.000Z</time>
      </trkpt>
      <trkpt lat="45.75531" lon="6.56439">
        <ele>1702.5999755859</ele>
        <time>2021-06-23T11:37:57.000Z</time>
      </trkpt>
      <trkpt lat="45.75529" lon="6.56445">
        <ele>1701.1999511719</ele>
        <time>2021-06-23T11:37:58.000Z</time>
      </trkpt>
      <trkpt lat="45.75528" lon="6.56451">
        <ele>1700</ele>
        <time>2021-06-23T11:37:59.000Z</time>
      </trkpt>
      <trkpt lat="45.75528" lon="6.56459">
        <ele>1698.8000488281</ele>
        <time>2021-06-23T11:38:00.000Z</time>
      </trkpt>
      <trkpt lat="45.7553" lon="6.56478">
        <ele>1697.5999755859</ele>
        <time>2021-06-23T11:38:02.000Z</time>
      </trkpt>
      <trkpt lat="45.75533" lon="6.56498">
        <ele>1695.8000488281</ele>
        <time>2021-06-23T11:38:04.000Z</time>
      </trkpt>
      <trkpt lat="45.75535" lon="6.56507">
        <ele>1694.5999755859</ele>
        <time>2021-06-23T11:38:05.000Z</time>
      </trkpt>
      <trkpt lat="45.7554" lon="6.56522">
        <ele>1693.4000244141</ele>
        <time>2021-06-23T11:38:07.000Z</time>
      </trkpt>
      <trkpt lat="45.75542" lon="6.56528">
        <ele>1692.5999755859</ele>
        <time>2021-06-23T11:38:08.000Z</time>
      </trkpt>
      <trkpt lat="45.75542" lon="6.56534">
        <ele>1691.4000244141</ele>
        <time>2021-06-23T11:38:09.000Z</time>
      </trkpt>
      <trkpt lat="45.75542" lon="6.56538">
        <ele>1689.8000488281</ele>
        <time>2021-06-23T11:38:10.000Z</time>
      </trkpt>
      <trkpt lat="45.75541" lon="6.56542">
        <ele>1687.1999511719</ele>
        <time>2021-06-23T11:38:11.000Z</time>
      </trkpt>
      <trkpt lat="45.7554" lon="6.56546">
        <ele>1685.8000488281</ele>
        <time>2021-06-23T11:38:12.000Z</time>
      </trkpt>
      <trkpt lat="45.75537" lon="6.56555">
        <ele>1684</ele>
        <time>2021-06-23T11:38:14.000Z</time>
      </trkpt>
      <trkpt lat="45.75538" lon="6.56567">
        <ele>1682.4000244141</ele>
        <time>2021-06-23T11:38:17.000Z</time>
      </trkpt>
      <trkpt lat="45.75539" lon="6.5657">
        <ele>1681.5999755859</ele>
        <time>2021-06-23T11:38:18.000Z</time>
      </trkpt>
      <trkpt lat="45.75541" lon="6.56571">
        <ele>1680.8000488281</ele>
        <time>2021-06-23T11:38:19.000Z</time>
      </trkpt>
      <trkpt lat="45.75543" lon="6.56571">
        <ele>1680.4000244141</ele>
        <time>2021-06-23T11:38:20.000Z</time>
      </trkpt>
      <trkpt lat="45.75549" lon="6.5657">
        <ele>1679.8000488281</ele>
        <time>2021-06-23T11:38:22.000Z</time>
      </trkpt>
      <trkpt lat="45.75557" lon="6.56568">
        <ele>1678.4000244141</ele>
        <time>2021-06-23T11:38:24.000Z</time>
      </trkpt>
      <trkpt lat="45.75565" lon="6.56566">
        <ele>1677.1999511719</ele>
        <time>2021-06-23T11:38:26.000Z</time>
      </trkpt>
      <trkpt lat="45.75568" lon="6.56565">
        <ele>1676.4000244141</ele>
        <time>2021-06-23T11:38:27.000Z</time>
      </trkpt>
      <trkpt lat="45.75571" lon="6.56565">
        <ele>1676</ele>
        <time>2021-06-23T11:38:28.000Z</time>
      </trkpt>
      <trkpt lat="45.75578" lon="6.56565">
        <ele>1674.8000488281</ele>
        <time>2021-06-23T11:38:30.000Z</time>
      </trkpt>
      <trkpt lat="45.75587" lon="6.56567">
        <ele>1672.5999755859</ele>
        <time>2021-06-23T11:38:32.000Z</time>
      </trkpt>
      <trkpt lat="45.75596" lon="6.56572">
        <ele>1671.4000244141</ele>
        <time>2021-06-23T11:38:34.000Z</time>
      </trkpt>
      <trkpt lat="45.75604" lon="6.56578">
        <ele>1670</ele>
        <time>2021-06-23T11:38:36.000Z</time>
      </trkpt>
      <trkpt lat="45.75607" lon="6.56581">
        <ele>1669.4000244141</ele>
        <time>2021-06-23T11:38:37.000Z</time>
      </trkpt>
      <trkpt lat="45.75609" lon="6.56584">
        <ele>1668.4000244141</ele>
        <time>2021-06-23T11:38:38.000Z</time>
      </trkpt>
      <trkpt lat="45.75611" lon="6.56587">
        <ele>1667.1999511719</ele>
        <time>2021-06-23T11:38:39.000Z</time>
      </trkpt>
      <trkpt lat="45.75612" lon="6.56592">
        <ele>1665.5999755859</ele>
        <time>2021-06-23T11:38:41.000Z</time>
      </trkpt>
      <trkpt lat="45.75612" lon="6.56594">
        <ele>1664.1999511719</ele>
        <time>2021-06-23T11:38:42.000Z</time>
      </trkpt>
      <trkpt lat="45.75612" lon="6.56599">
        <ele>1662.8000488281</ele>
        <time>2021-06-23T11:38:44.000Z</time>
      </trkpt>
      <trkpt lat="45.75611" lon="6.56606">
        <ele>1662.1999511719</ele>
        <time>2021-06-23T11:38:46.000Z</time>
      </trkpt>
      <trkpt lat="45.75611" lon="6.5661">
        <ele>1661.8000488281</ele>
        <time>2021-06-23T11:38:47.000Z</time>
      </trkpt>
      <trkpt lat="45.75612" lon="6.56622">
        <ele>1660.5999755859</ele>
        <time>2021-06-23T11:38:50.000Z</time>
      </trkpt>
      <trkpt lat="45.75615" lon="6.56638">
        <ele>1659.5999755859</ele>
        <time>2021-06-23T11:38:54.000Z</time>
      </trkpt>
      <trkpt lat="45.75619" lon="6.56647">
        <ele>1658.1999511719</ele>
        <time>2021-06-23T11:38:56.000Z</time>
      </trkpt>
      <trkpt lat="45.75621" lon="6.56653">
        <ele>1657.8000488281</ele>
        <time>2021-06-23T11:38:57.000Z</time>
      </trkpt>
      <trkpt lat="45.75627" lon="6.56663">
        <ele>1657</ele>
        <time>2021-06-23T11:38:59.000Z</time>
      </trkpt>
      <trkpt lat="45.75633" lon="6.56676">
        <ele>1654.5999755859</ele>
        <time>2021-06-23T11:39:03.000Z</time>
      </trkpt>
      <trkpt lat="45.75634" lon="6.56678">
        <ele>1653.4000244141</ele>
        <time>2021-06-23T11:39:05.000Z</time>
      </trkpt>
      <trkpt lat="45.75634" lon="6.56676">
        <ele>1652.4000244141</ele>
        <time>2021-06-23T11:39:07.000Z</time>
      </trkpt>
      <trkpt lat="45.75634" lon="6.56675">
        <ele>1651</ele>
        <time>2021-06-23T11:39:08.000Z</time>
      </trkpt>
      <trkpt lat="45.75634" lon="6.56674">
        <ele>1649.8000488281</ele>
        <time>2021-06-23T11:39:10.000Z</time>
      </trkpt>
      <trkpt lat="45.75635" lon="6.56672">
        <ele>1648.8000488281</ele>
        <time>2021-06-23T11:39:20.000Z</time>
      </trkpt>
      <trkpt lat="45.75635" lon="6.56672">
        <ele>1648.8000488281</ele>
        <time>2021-06-23T11:39:21.000Z</time>
      </trkpt>
      <trkpt lat="45.75635" lon="6.56672">
        <ele>1648.8000488281</ele>
        <time>2021-06-23T11:39:22.000Z</time>
      </trkpt>
      <trkpt lat="45.75635" lon="6.56672">
        <ele>1648.8000488281</ele>
        <time>2021-06-23T11:39:23.000Z</time>
      </trkpt>
      <trkpt lat="45.75635" lon="6.56672">
        <ele>1648.8000488281</ele>
        <time>2021-06-23T11:39:24.000Z</time>
      </trkpt>
      <trkpt lat="45.75635" lon="6.56672">
        <ele>1648.8000488281</ele>
        <time>2021-06-23T11:39:25.000Z</time>
      </trkpt>
      <trkpt lat="45.75635" lon="6.56674">
        <ele>1650.4000244141</ele>
        <time>2021-06-23T11:39:29.000Z</time>
      </trkpt>
      <trkpt lat="45.75635" lon="6.56678">
        <ele>1650.4000244141</ele>
        <time>2021-06-23T11:39:32.000Z</time>
      </trkpt>
      <trkpt lat="45.75635" lon="6.56685">
        <ele>1649.1999511719</ele>
        <time>2021-06-23T11:39:34.000Z</time>
      </trkpt>
      <trkpt lat="45.75635" lon="6.56689">
        <ele>1647.4000244141</ele>
        <time>2021-06-23T11:39:35.000Z</time>
      </trkpt>
      <trkpt lat="45.75635" lon="6.56695">
        <ele>1647.4000244141</ele>
        <time>2021-06-23T11:39:36.000Z</time>
      </trkpt>
      <trkpt lat="45.75635" lon="6.56712">
        <ele>1646.4000244141</ele>
        <time>2021-06-23T11:39:39.000Z</time>
      </trkpt>
      <trkpt lat="45.75636" lon="6.56725">
        <ele>1645.4000244141</ele>
        <time>2021-06-23T11:39:42.000Z</time>
      </trkpt>
      <trkpt lat="45.75635" lon="6.56729">
        <ele>1645</ele>
        <time>2021-06-23T11:39:43.000Z</time>
      </trkpt>
      <trkpt lat="45.75635" lon="6.56732">
        <ele>1644.1999511719</ele>
        <time>2021-06-23T11:39:47.000Z</time>
      </trkpt>
      <trkpt lat="45.75637" lon="6.56732">
        <ele>1644.4000244141</ele>
        <time>2021-06-23T11:39:55.000Z</time>
      </trkpt>
      <trkpt lat="45.75638" lon="6.56731">
        <ele>1644</ele>
        <time>2021-06-23T11:40:02.000Z</time>
      </trkpt>
      <trkpt lat="45.75638" lon="6.56732">
        <ele>1644</ele>
        <time>2021-06-23T11:40:03.000Z</time>
      </trkpt>
      <trkpt lat="45.75638" lon="6.56731">
        <ele>1644</ele>
        <time>2021-06-23T11:40:04.000Z</time>
      </trkpt>
      <trkpt lat="45.75637" lon="6.56731">
        <ele>1644</ele>
        <time>2021-06-23T11:40:05.000Z</time>
      </trkpt>
      <trkpt lat="45.75637" lon="6.56737">
        <ele>1644</ele>
        <time>2021-06-23T11:40:09.000Z</time>
      </trkpt>
      <trkpt lat="45.75638" lon="6.56754">
        <ele>1644</ele>
        <time>2021-06-23T11:40:13.000Z</time>
      </trkpt>
      <trkpt lat="45.75641" lon="6.56776">
        <ele>1643.8000488281</ele>
        <time>2021-06-23T11:40:17.000Z</time>
      </trkpt>
      <trkpt lat="45.75644" lon="6.56786">
        <ele>1643</ele>
        <time>2021-06-23T11:40:19.000Z</time>
      </trkpt>
      <trkpt lat="45.75646" lon="6.56792">
        <ele>1642.5999755859</ele>
        <time>2021-06-23T11:40:20.000Z</time>
      </trkpt>
      <trkpt lat="45.75651" lon="6.56807">
        <ele>1640.5999755859</ele>
        <time>2021-06-23T11:40:23.000Z</time>
      </trkpt>
      <trkpt lat="45.75653" lon="6.56812">
        <ele>1639.4000244141</ele>
        <time>2021-06-23T11:40:24.000Z</time>
      </trkpt>
      <trkpt lat="45.75654" lon="6.56817">
        <ele>1638.5999755859</ele>
        <time>2021-06-23T11:40:25.000Z</time>
      </trkpt>
      <trkpt lat="45.75656" lon="6.56822">
        <ele>1637.8000488281</ele>
        <time>2021-06-23T11:40:26.000Z</time>
      </trkpt>
      <trkpt lat="45.75658" lon="6.56831">
        <ele>1636.8000488281</ele>
        <time>2021-06-23T11:40:28.000Z</time>
      </trkpt>
      <trkpt lat="45.75661" lon="6.56841">
        <ele>1635.1999511719</ele>
        <time>2021-06-23T11:40:30.000Z</time>
      </trkpt>
      <trkpt lat="45.75663" lon="6.56849">
        <ele>1633.4000244141</ele>
        <time>2021-06-23T11:40:32.000Z</time>
      </trkpt>
      <trkpt lat="45.75663" lon="6.56852">
        <ele>1632.1999511719</ele>
        <time>2021-06-23T11:40:33.000Z</time>
      </trkpt>
      <trkpt lat="45.75663" lon="6.56854">
        <ele>1630.5999755859</ele>
        <time>2021-06-23T11:40:34.000Z</time>
      </trkpt>
      <trkpt lat="45.75663" lon="6.56857">
        <ele>1629.4000244141</ele>
        <time>2021-06-23T11:40:35.000Z</time>
      </trkpt>
      <trkpt lat="45.75663" lon="6.5686">
        <ele>1628.4000244141</ele>
        <time>2021-06-23T11:40:36.000Z</time>
      </trkpt>
      <trkpt lat="45.75664" lon="6.56863">
        <ele>1628.4000244141</ele>
        <time>2021-06-23T11:40:37.000Z</time>
      </trkpt>
      <trkpt lat="45.75666" lon="6.56866">
        <ele>1627.5999755859</ele>
        <time>2021-06-23T11:40:38.000Z</time>
      </trkpt>
      <trkpt lat="45.75668" lon="6.56868">
        <ele>1626.4000244141</ele>
        <time>2021-06-23T11:40:39.000Z</time>
      </trkpt>
      <trkpt lat="45.75671" lon="6.56874">
        <ele>1624.5999755859</ele>
        <time>2021-06-23T11:40:41.000Z</time>
      </trkpt>
      <trkpt lat="45.75672" lon="6.56878">
        <ele>1623.4000244141</ele>
        <time>2021-06-23T11:40:43.000Z</time>
      </trkpt>
      <trkpt lat="45.75674" lon="6.56884">
        <ele>1622</ele>
        <time>2021-06-23T11:40:45.000Z</time>
      </trkpt>
      <trkpt lat="45.75675" lon="6.56886">
        <ele>1621.1999511719</ele>
        <time>2021-06-23T11:40:46.000Z</time>
      </trkpt>
      <trkpt lat="45.75676" lon="6.56888">
        <ele>1620.4000244141</ele>
        <time>2021-06-23T11:40:47.000Z</time>
      </trkpt>
      <trkpt lat="45.75678" lon="6.56894">
        <ele>1619</ele>
        <time>2021-06-23T11:40:49.000Z</time>
      </trkpt>
      <trkpt lat="45.75679" lon="6.56898">
        <ele>1618.1999511719</ele>
        <time>2021-06-23T11:40:50.000Z</time>
      </trkpt>
      <trkpt lat="45.75681" lon="6.56902">
        <ele>1617.5999755859</ele>
        <time>2021-06-23T11:40:51.000Z</time>
      </trkpt>
      <trkpt lat="45.75682" lon="6.56906">
        <ele>1617</ele>
        <time>2021-06-23T11:40:52.000Z</time>
      </trkpt>
      <trkpt lat="45.75683" lon="6.56909">
        <ele>1616.5999755859</ele>
        <time>2021-06-23T11:40:53.000Z</time>
      </trkpt>
      <trkpt lat="45.75686" lon="6.56917">
        <ele>1614.4000244141</ele>
        <time>2021-06-23T11:40:56.000Z</time>
      </trkpt>
      <trkpt lat="45.75687" lon="6.5692">
        <ele>1613.4000244141</ele>
        <time>2021-06-23T11:40:57.000Z</time>
      </trkpt>
      <trkpt lat="45.75689" lon="6.56924">
        <ele>1612.1999511719</ele>
        <time>2021-06-23T11:40:58.000Z</time>
      </trkpt>
      <trkpt lat="45.7569" lon="6.56927">
        <ele>1611</ele>
        <time>2021-06-23T11:40:59.000Z</time>
      </trkpt>
      <trkpt lat="45.75691" lon="6.56931">
        <ele>1610</ele>
        <time>2021-06-23T11:41:00.000Z</time>
      </trkpt>
      <trkpt lat="45.75694" lon="6.56938">
        <ele>1608.5999755859</ele>
        <time>2021-06-23T11:41:02.000Z</time>
      </trkpt>
      <trkpt lat="45.75697" lon="6.56946">
        <ele>1607.4000244141</ele>
        <time>2021-06-23T11:41:04.000Z</time>
      </trkpt>
      <trkpt lat="45.75699" lon="6.56951">
        <ele>1606.1999511719</ele>
        <time>2021-06-23T11:41:05.000Z</time>
      </trkpt>
      <trkpt lat="45.75702" lon="6.56961">
        <ele>1605</ele>
        <time>2021-06-23T11:41:07.000Z</time>
      </trkpt>
      <trkpt lat="45.75704" lon="6.56971">
        <ele>1603.5999755859</ele>
        <time>2021-06-23T11:41:09.000Z</time>
      </trkpt>
      <trkpt lat="45.75705" lon="6.56977">
        <ele>1602.1999511719</ele>
        <time>2021-06-23T11:41:10.000Z</time>
      </trkpt>
      <trkpt lat="45.75706" lon="6.56982">
        <ele>1601.4000244141</ele>
        <time>2021-06-23T11:41:11.000Z</time>
      </trkpt>
      <trkpt lat="45.75706" lon="6.56987">
        <ele>1600.1999511719</ele>
        <time>2021-06-23T11:41:12.000Z</time>
      </trkpt>
      <trkpt lat="45.75708" lon="6.56999">
        <ele>1598</ele>
        <time>2021-06-23T11:41:14.000Z</time>
      </trkpt>
      <trkpt lat="45.75709" lon="6.57006">
        <ele>1596.4000244141</ele>
        <time>2021-06-23T11:41:15.000Z</time>
      </trkpt>
      <trkpt lat="45.7571" lon="6.57012">
        <ele>1595.1999511719</ele>
        <time>2021-06-23T11:41:16.000Z</time>
      </trkpt>
      <trkpt lat="45.75711" lon="6.57018">
        <ele>1594.5999755859</ele>
        <time>2021-06-23T11:41:17.000Z</time>
      </trkpt>
      <trkpt lat="45.75712" lon="6.57024">
        <ele>1594.1999511719</ele>
        <time>2021-06-23T11:41:18.000Z</time>
      </trkpt>
      <trkpt lat="45.75714" lon="6.57029">
        <ele>1592.8000488281</ele>
        <time>2021-06-23T11:41:19.000Z</time>
      </trkpt>
      <trkpt lat="45.75716" lon="6.57032">
        <ele>1591.8000488281</ele>
        <time>2021-06-23T11:41:20.000Z</time>
      </trkpt>
      <trkpt lat="45.75718" lon="6.57036">
        <ele>1591.1999511719</ele>
        <time>2021-06-23T11:41:21.000Z</time>
      </trkpt>
      <trkpt lat="45.75721" lon="6.57039">
        <ele>1589.5999755859</ele>
        <time>2021-06-23T11:41:22.000Z</time>
      </trkpt>
      <trkpt lat="45.75729" lon="6.57044">
        <ele>1587.8000488281</ele>
        <time>2021-06-23T11:41:24.000Z</time>
      </trkpt>
      <trkpt lat="45.75736" lon="6.57049">
        <ele>1585.8000488281</ele>
        <time>2021-06-23T11:41:26.000Z</time>
      </trkpt>
      <trkpt lat="45.75738" lon="6.57053">
        <ele>1584.8000488281</ele>
        <time>2021-06-23T11:41:27.000Z</time>
      </trkpt>
      <trkpt lat="45.7574" lon="6.57063">
        <ele>1583.4000244141</ele>
        <time>2021-06-23T11:41:29.000Z</time>
      </trkpt>
      <trkpt lat="45.75739" lon="6.57069">
        <ele>1582.8000488281</ele>
        <time>2021-06-23T11:41:30.000Z</time>
      </trkpt>
      <trkpt lat="45.75738" lon="6.57075">
        <ele>1581.8000488281</ele>
        <time>2021-06-23T11:41:31.000Z</time>
      </trkpt>
      <trkpt lat="45.75736" lon="6.57082">
        <ele>1580.8000488281</ele>
        <time>2021-06-23T11:41:32.000Z</time>
      </trkpt>
      <trkpt lat="45.75734" lon="6.57087">
        <ele>1580</ele>
        <time>2021-06-23T11:41:33.000Z</time>
      </trkpt>
      <trkpt lat="45.75732" lon="6.57093">
        <ele>1579.1999511719</ele>
        <time>2021-06-23T11:41:34.000Z</time>
      </trkpt>
      <trkpt lat="45.75726" lon="6.57103">
        <ele>1578</ele>
        <time>2021-06-23T11:41:35.000Z</time>
      </trkpt>
      <trkpt lat="45.75723" lon="6.57108">
        <ele>1577.5999755859</ele>
        <time>2021-06-23T11:41:37.000Z</time>
      </trkpt>
      <trkpt lat="45.75719" lon="6.57111">
        <ele>1577.1999511719</ele>
        <time>2021-06-23T11:41:38.000Z</time>
      </trkpt>
      <trkpt lat="45.75717" lon="6.57114">
        <ele>1576.1999511719</ele>
        <time>2021-06-23T11:41:39.000Z</time>
      </trkpt>
      <trkpt lat="45.75712" lon="6.57118">
        <ele>1573</ele>
        <time>2021-06-23T11:41:41.000Z</time>
      </trkpt>
      <trkpt lat="45.7571" lon="6.57119">
        <ele>1571.8000488281</ele>
        <time>2021-06-23T11:41:42.000Z</time>
      </trkpt>
      <trkpt lat="45.75709" lon="6.5712">
        <ele>1571.1999511719</ele>
        <time>2021-06-23T11:41:43.000Z</time>
      </trkpt>
      <trkpt lat="45.75707" lon="6.57121">
        <ele>1570.8000488281</ele>
        <time>2021-06-23T11:41:44.000Z</time>
      </trkpt>
      <trkpt lat="45.75707" lon="6.57122">
        <ele>1569.8000488281</ele>
        <time>2021-06-23T11:41:45.000Z</time>
      </trkpt>
      <trkpt lat="45.75706" lon="6.57122">
        <ele>1568.1999511719</ele>
        <time>2021-06-23T11:41:47.000Z</time>
      </trkpt>
      <trkpt lat="45.75706" lon="6.57122">
        <ele>1567</ele>
        <time>2021-06-23T11:41:48.000Z</time>
      </trkpt>
      <trkpt lat="45.75706" lon="6.57122">
        <ele>1566.1999511719</ele>
        <time>2021-06-23T11:41:49.000Z</time>
      </trkpt>
      <trkpt lat="45.75707" lon="6.57123">
        <ele>1565.4000244141</ele>
        <time>2021-06-23T11:41:50.000Z</time>
      </trkpt>
      <trkpt lat="45.75707" lon="6.57124">
        <ele>1564.1999511719</ele>
        <time>2021-06-23T11:41:53.000Z</time>
      </trkpt>
      <trkpt lat="45.75706" lon="6.57124">
        <ele>1563.5999755859</ele>
        <time>2021-06-23T11:41:56.000Z</time>
      </trkpt>
      <trkpt lat="45.75705" lon="6.57122">
        <ele>1563.1999511719</ele>
        <time>2021-06-23T11:42:05.000Z</time>
      </trkpt>
      <trkpt lat="45.75704" lon="6.57119">
        <ele>1563</ele>
        <time>2021-06-23T11:42:10.000Z</time>
      </trkpt>
      <trkpt lat="45.75704" lon="6.57122">
        <ele>1562.8000488281</ele>
        <time>2021-06-23T11:42:15.000Z</time>
      </trkpt>
      <trkpt lat="45.75704" lon="6.57122">
        <ele>1562.5999755859</ele>
        <time>2021-06-23T11:42:21.000Z</time>
      </trkpt>
      <trkpt lat="45.75704" lon="6.57122">
        <ele>1562.1999511719</ele>
        <time>2021-06-23T11:42:24.000Z</time>
      </trkpt>
      <trkpt lat="45.75704" lon="6.57123">
        <ele>1562</ele>
        <time>2021-06-23T11:42:30.000Z</time>
      </trkpt>
      <trkpt lat="45.75704" lon="6.57123">
        <ele>1562</ele>
        <time>2021-06-23T11:42:32.000Z</time>
      </trkpt>
      <trkpt lat="45.75704" lon="6.57123">
        <ele>1562.1999511719</ele>
        <time>2021-06-23T11:42:36.000Z</time>
      </trkpt>
      <trkpt lat="45.75703" lon="6.57123">
        <ele>1562.1999511719</ele>
        <time>2021-06-23T11:42:37.000Z</time>
      </trkpt>
      <trkpt lat="45.75703" lon="6.57123">
        <ele>1562</ele>
        <time>2021-06-23T11:42:54.000Z</time>
      </trkpt>
      <trkpt lat="45.75703" lon="6.57123">
        <ele>1562.1999511719</ele>
        <time>2021-06-23T11:42:56.000Z</time>
      </trkpt>
      <trkpt lat="45.75703" lon="6.57122">
        <ele>1562.1999511719</ele>
        <time>2021-06-23T11:43:02.000Z</time>
      </trkpt>
      <trkpt lat="45.75703" lon="6.57122">
        <ele>1562.1999511719</ele>
        <time>2021-06-23T11:43:04.000Z</time>
      </trkpt>
      <trkpt lat="45.75703" lon="6.57122">
        <ele>1562.4000244141</ele>
        <time>2021-06-23T11:43:07.000Z</time>
      </trkpt>
      <trkpt lat="45.75703" lon="6.57122">
        <ele>1562.4000244141</ele>
        <time>2021-06-23T11:43:11.000Z</time>
      </trkpt>
      <trkpt lat="45.75703" lon="6.57122">
        <ele>1562</ele>
        <time>2021-06-23T11:43:14.000Z</time>
      </trkpt>
      <trkpt lat="45.75703" lon="6.57122">
        <ele>1562</ele>
        <time>2021-06-23T11:43:18.000Z</time>
      </trkpt>
      <trkpt lat="45.75703" lon="6.57122">
        <ele>1562</ele>
        <time>2021-06-23T11:43:19.000Z</time>
      </trkpt>
      <trkpt lat="45.75703" lon="6.57121">
        <ele>1562.1999511719</ele>
        <time>2021-06-23T11:43:25.000Z</time>
      </trkpt>
      <trkpt lat="45.75702" lon="6.57121">
        <ele>1562.1999511719</ele>
        <time>2021-06-23T11:43:30.000Z</time>
      </trkpt>
      <trkpt lat="45.75702" lon="6.57121">
        <ele>1562.1999511719</ele>
        <time>2021-06-23T11:43:31.000Z</time>
      </trkpt>
      <trkpt lat="45.75697" lon="6.57124">
        <ele>1562.1999511719</ele>
        <time>2021-06-23T11:43:41.000Z</time>
      </trkpt>
      <trkpt lat="45.75696" lon="6.57126">
        <ele>1562.1999511719</ele>
        <time>2021-06-23T11:43:42.000Z</time>
      </trkpt>
      <trkpt lat="45.75693" lon="6.57128">
        <ele>1562.1999511719</ele>
        <time>2021-06-23T11:43:43.000Z</time>
      </trkpt>
      <trkpt lat="45.75682" lon="6.57132">
        <ele>1562</ele>
        <time>2021-06-23T11:43:46.000Z</time>
      </trkpt>
      <trkpt lat="45.75668" lon="6.57135">
        <ele>1561.4000244141</ele>
        <time>2021-06-23T11:43:50.000Z</time>
      </trkpt>
      <trkpt lat="45.75664" lon="6.57137">
        <ele>1561</ele>
        <time>2021-06-23T11:43:51.000Z</time>
      </trkpt>
      <trkpt lat="45.7566" lon="6.57138">
        <ele>1559.4000244141</ele>
        <time>2021-06-23T11:43:52.000Z</time>
      </trkpt>
      <trkpt lat="45.75656" lon="6.57138">
        <ele>1558.4000244141</ele>
        <time>2021-06-23T11:43:53.000Z</time>
      </trkpt>
      <trkpt lat="45.75647" lon="6.5714">
        <ele>1556.8000488281</ele>
        <time>2021-06-23T11:43:55.000Z</time>
      </trkpt>
      <trkpt lat="45.75643" lon="6.5714">
        <ele>1556.4000244141</ele>
        <time>2021-06-23T11:43:56.000Z</time>
      </trkpt>
      <trkpt lat="45.75638" lon="6.57141">
        <ele>1555.4000244141</ele>
        <time>2021-06-23T11:43:57.000Z</time>
      </trkpt>
      <trkpt lat="45.75634" lon="6.57143">
        <ele>1554.5999755859</ele>
        <time>2021-06-23T11:43:58.000Z</time>
      </trkpt>
      <trkpt lat="45.7563" lon="6.57145">
        <ele>1553.5999755859</ele>
        <time>2021-06-23T11:43:59.000Z</time>
      </trkpt>
      <trkpt lat="45.75623" lon="6.57151">
        <ele>1552</ele>
        <time>2021-06-23T11:44:01.000Z</time>
      </trkpt>
      <trkpt lat="45.7562" lon="6.57155">
        <ele>1550.8000488281</ele>
        <time>2021-06-23T11:44:02.000Z</time>
      </trkpt>
      <trkpt lat="45.75617" lon="6.57159">
        <ele>1549.8000488281</ele>
        <time>2021-06-23T11:44:03.000Z</time>
      </trkpt>
      <trkpt lat="45.7561" lon="6.57165">
        <ele>1548.4000244141</ele>
        <time>2021-06-23T11:44:05.000Z</time>
      </trkpt>
      <trkpt lat="45.75603" lon="6.57167">
        <ele>1546.4000244141</ele>
        <time>2021-06-23T11:44:07.000Z</time>
      </trkpt>
      <trkpt lat="45.75599" lon="6.57168">
        <ele>1545.1999511719</ele>
        <time>2021-06-23T11:44:08.000Z</time>
      </trkpt>
      <trkpt lat="45.7559" lon="6.57169">
        <ele>1544</ele>
        <time>2021-06-23T11:44:10.000Z</time>
      </trkpt>
      <trkpt lat="45.75585" lon="6.5717">
        <ele>1542.8000488281</ele>
        <time>2021-06-23T11:44:11.000Z</time>
      </trkpt>
      <trkpt lat="45.75577" lon="6.57172">
        <ele>1541.4000244141</ele>
        <time>2021-06-23T11:44:13.000Z</time>
      </trkpt>
      <trkpt lat="45.75573" lon="6.57174">
        <ele>1540.8000488281</ele>
        <time>2021-06-23T11:44:14.000Z</time>
      </trkpt>
      <trkpt lat="45.75569" lon="6.57177">
        <ele>1539.5999755859</ele>
        <time>2021-06-23T11:44:15.000Z</time>
      </trkpt>
      <trkpt lat="45.75566" lon="6.57179">
        <ele>1538.4000244141</ele>
        <time>2021-06-23T11:44:16.000Z</time>
      </trkpt>
      <trkpt lat="45.7556" lon="6.57185">
        <ele>1537</ele>
        <time>2021-06-23T11:44:18.000Z</time>
      </trkpt>
      <trkpt lat="45.75558" lon="6.57189">
        <ele>1534.8000488281</ele>
        <time>2021-06-23T11:44:20.000Z</time>
      </trkpt>
      <trkpt lat="45.75557" lon="6.57189">
        <ele>1534</ele>
        <time>2021-06-23T11:44:21.000Z</time>
      </trkpt>
      <trkpt lat="45.75557" lon="6.5719">
        <ele>1532.5999755859</ele>
        <time>2021-06-23T11:44:22.000Z</time>
      </trkpt>
      <trkpt lat="45.75556" lon="6.5719">
        <ele>1532</ele>
        <time>2021-06-23T11:44:23.000Z</time>
      </trkpt>
      <trkpt lat="45.75555" lon="6.57189">
        <ele>1531.1999511719</ele>
        <time>2021-06-23T11:44:24.000Z</time>
      </trkpt>
      <trkpt lat="45.75554" lon="6.57188">
        <ele>1530</ele>
        <time>2021-06-23T11:44:26.000Z</time>
      </trkpt>
      <trkpt lat="45.75554" lon="6.57187">
        <ele>1529</ele>
        <time>2021-06-23T11:44:31.000Z</time>
      </trkpt>
      <trkpt lat="45.75554" lon="6.57186">
        <ele>1529</ele>
        <time>2021-06-23T11:44:32.000Z</time>
      </trkpt>
      <trkpt lat="45.75555" lon="6.57187">
        <ele>1528.8000488281</ele>
        <time>2021-06-23T11:44:34.000Z</time>
      </trkpt>
      <trkpt lat="45.75555" lon="6.57187">
        <ele>1528.8000488281</ele>
        <time>2021-06-23T11:44:35.000Z</time>
      </trkpt>
      <trkpt lat="45.75555" lon="6.57189">
        <ele>1528.8000488281</ele>
        <time>2021-06-23T11:44:40.000Z</time>
      </trkpt>
      <trkpt lat="45.75554" lon="6.57189">
        <ele>1528.8000488281</ele>
        <time>2021-06-23T11:44:41.000Z</time>
      </trkpt>
      <trkpt lat="45.75554" lon="6.57188">
        <ele>1528.8000488281</ele>
        <time>2021-06-23T11:44:42.000Z</time>
      </trkpt>
      <trkpt lat="45.75554" lon="6.57189">
        <ele>1528.8000488281</ele>
        <time>2021-06-23T11:44:49.000Z</time>
      </trkpt>
      <trkpt lat="45.75553" lon="6.57191">
        <ele>1528.8000488281</ele>
        <time>2021-06-23T11:44:51.000Z</time>
      </trkpt>
      <trkpt lat="45.75551" lon="6.57192">
        <ele>1528.5999755859</ele>
        <time>2021-06-23T11:44:52.000Z</time>
      </trkpt>
      <trkpt lat="45.75545" lon="6.572">
        <ele>1528.4000244141</ele>
        <time>2021-06-23T11:44:55.000Z</time>
      </trkpt>
      <trkpt lat="45.75536" lon="6.57212">
        <ele>1528</ele>
        <time>2021-06-23T11:44:59.000Z</time>
      </trkpt>
      <trkpt lat="45.7553" lon="6.57217">
        <ele>1527</ele>
        <time>2021-06-23T11:45:02.000Z</time>
      </trkpt>
      <trkpt lat="45.7553" lon="6.57218">
        <ele>1526.8000488281</ele>
        <time>2021-06-23T11:45:03.000Z</time>
      </trkpt>
      <trkpt lat="45.75529" lon="6.57217">
        <ele>1525.5999755859</ele>
        <time>2021-06-23T11:45:07.000Z</time>
      </trkpt>
      <trkpt lat="45.75529" lon="6.57217">
        <ele>1524.8000488281</ele>
        <time>2021-06-23T11:45:08.000Z</time>
      </trkpt>
      <trkpt lat="45.75529" lon="6.57217">
        <ele>1524.4000244141</ele>
        <time>2021-06-23T11:45:09.000Z</time>
      </trkpt>
      <trkpt lat="45.75527" lon="6.57218">
        <ele>1523.4000244141</ele>
        <time>2021-06-23T11:45:17.000Z</time>
      </trkpt>
      <trkpt lat="45.75523" lon="6.57218">
        <ele>1523.4000244141</ele>
        <time>2021-06-23T11:45:19.000Z</time>
      </trkpt>
      <trkpt lat="45.75515" lon="6.57216">
        <ele>1523.1999511719</ele>
        <time>2021-06-23T11:45:22.000Z</time>
      </trkpt>
      <trkpt lat="45.75501" lon="6.57209">
        <ele>1523</ele>
        <time>2021-06-23T11:45:26.000Z</time>
      </trkpt>
      <trkpt lat="45.75494" lon="6.57206">
        <ele>1522.5999755859</ele>
        <time>2021-06-23T11:45:28.000Z</time>
      </trkpt>
      <trkpt lat="45.75489" lon="6.57205">
        <ele>1522.1999511719</ele>
        <time>2021-06-23T11:45:29.000Z</time>
      </trkpt>
      <trkpt lat="45.7548" lon="6.57202">
        <ele>1520.5999755859</ele>
        <time>2021-06-23T11:45:31.000Z</time>
      </trkpt>
      <trkpt lat="45.75475" lon="6.57201">
        <ele>1519.4000244141</ele>
        <time>2021-06-23T11:45:32.000Z</time>
      </trkpt>
      <trkpt lat="45.75465" lon="6.57198">
        <ele>1518</ele>
        <time>2021-06-23T11:45:34.000Z</time>
      </trkpt>
      <trkpt lat="45.75454" lon="6.57195">
        <ele>1516.1999511719</ele>
        <time>2021-06-23T11:45:36.000Z</time>
      </trkpt>
      <trkpt lat="45.75442" lon="6.57192">
        <ele>1514.8000488281</ele>
        <time>2021-06-23T11:45:38.000Z</time>
      </trkpt>
      <trkpt lat="45.75429" lon="6.5719">
        <ele>1513</ele>
        <time>2021-06-23T11:45:40.000Z</time>
      </trkpt>
      <trkpt lat="45.75415" lon="6.57189">
        <ele>1511.5999755859</ele>
        <time>2021-06-23T11:45:41.000Z</time>
      </trkpt>
      <trkpt lat="45.75408" lon="6.57189">
        <ele>1510.5999755859</ele>
        <time>2021-06-23T11:45:43.000Z</time>
      </trkpt>
      <trkpt lat="45.75392" lon="6.57187">
        <ele>1509.1999511719</ele>
        <time>2021-06-23T11:45:45.000Z</time>
      </trkpt>
      <trkpt lat="45.75378" lon="6.57185">
        <ele>1507.5999755859</ele>
        <time>2021-06-23T11:45:47.000Z</time>
      </trkpt>
      <trkpt lat="45.75364" lon="6.57181">
        <ele>1506</ele>
        <time>2021-06-23T11:45:49.000Z</time>
      </trkpt>
      <trkpt lat="45.75358" lon="6.57178">
        <ele>1504.5999755859</ele>
        <time>2021-06-23T11:45:50.000Z</time>
      </trkpt>
      <trkpt lat="45.75353" lon="6.57175">
        <ele>1503.8000488281</ele>
        <time>2021-06-23T11:45:51.000Z</time>
      </trkpt>
      <trkpt lat="45.75348" lon="6.57171">
        <ele>1503.1999511719</ele>
        <time>2021-06-23T11:45:52.000Z</time>
      </trkpt>
      <trkpt lat="45.75337" lon="6.57164">
        <ele>1500.8000488281</ele>
        <time>2021-06-23T11:45:54.000Z</time>
      </trkpt>
      <trkpt lat="45.75323" lon="6.57162">
        <ele>1499.1999511719</ele>
        <time>2021-06-23T11:45:56.000Z</time>
      </trkpt>
      <trkpt lat="45.75283" lon="6.57154">
        <ele>1498</ele>
        <time>2021-06-23T11:46:01.000Z</time>
      </trkpt>
      <trkpt lat="45.75276" lon="6.57153">
        <ele>1497.8000488281</ele>
        <time>2021-06-23T11:46:02.000Z</time>
      </trkpt>
      <trkpt lat="45.75268" lon="6.57151">
        <ele>1496.8000488281</ele>
        <time>2021-06-23T11:46:03.000Z</time>
      </trkpt>
      <trkpt lat="45.75254" lon="6.57147">
        <ele>1495.5999755859</ele>
        <time>2021-06-23T11:46:05.000Z</time>
      </trkpt>
      <trkpt lat="45.75232" lon="6.57136">
        <ele>1494.8000488281</ele>
        <time>2021-06-23T11:46:08.000Z</time>
      </trkpt>
      <trkpt lat="45.75225" lon="6.57131">
        <ele>1494.1999511719</ele>
        <time>2021-06-23T11:46:09.000Z</time>
      </trkpt>
      <trkpt lat="45.75195" lon="6.57112">
        <ele>1493.1999511719</ele>
        <time>2021-06-23T11:46:13.000Z</time>
      </trkpt>
      <trkpt lat="45.75187" lon="6.57107">
        <ele>1493</ele>
        <time>2021-06-23T11:46:14.000Z</time>
      </trkpt>
      <trkpt lat="45.7517" lon="6.57096">
        <ele>1491.8000488281</ele>
        <time>2021-06-23T11:46:16.000Z</time>
      </trkpt>
      <trkpt lat="45.75154" lon="6.57083">
        <ele>1491</ele>
        <time>2021-06-23T11:46:18.000Z</time>
      </trkpt>
      <trkpt lat="45.75147" lon="6.57076">
        <ele>1490.4000244141</ele>
        <time>2021-06-23T11:46:19.000Z</time>
      </trkpt>
      <trkpt lat="45.75128" lon="6.5705">
        <ele>1489</ele>
        <time>2021-06-23T11:46:22.000Z</time>
      </trkpt>
      <trkpt lat="45.75116" lon="6.57033">
        <ele>1488</ele>
        <time>2021-06-23T11:46:24.000Z</time>
      </trkpt>
      <trkpt lat="45.7511" lon="6.57026">
        <ele>1486.8000488281</ele>
        <time>2021-06-23T11:46:25.000Z</time>
      </trkpt>
      <trkpt lat="45.75097" lon="6.57012">
        <ele>1485.1999511719</ele>
        <time>2021-06-23T11:46:27.000Z</time>
      </trkpt>
      <trkpt lat="45.75083" lon="6.57001">
        <ele>1484</ele>
        <time>2021-06-23T11:46:29.000Z</time>
      </trkpt>
      <trkpt lat="45.75076" lon="6.56995">
        <ele>1482.5999755859</ele>
        <time>2021-06-23T11:46:30.000Z</time>
      </trkpt>
      <trkpt lat="45.75069" lon="6.56989">
        <ele>1481.5999755859</ele>
        <time>2021-06-23T11:46:31.000Z</time>
      </trkpt>
      <trkpt lat="45.75057" lon="6.56976">
        <ele>1480</ele>
        <time>2021-06-23T11:46:33.000Z</time>
      </trkpt>
      <trkpt lat="45.75052" lon="6.56969">
        <ele>1479.5999755859</ele>
        <time>2021-06-23T11:46:34.000Z</time>
      </trkpt>
      <trkpt lat="45.75049" lon="6.56961">
        <ele>1478.8000488281</ele>
        <time>2021-06-23T11:46:35.000Z</time>
      </trkpt>
      <trkpt lat="45.75047" lon="6.56952">
        <ele>1478.1999511719</ele>
        <time>2021-06-23T11:46:36.000Z</time>
      </trkpt>
      <trkpt lat="45.75045" lon="6.56942">
        <ele>1477.1999511719</ele>
        <time>2021-06-23T11:46:37.000Z</time>
      </trkpt>
      <trkpt lat="45.75043" lon="6.56924">
        <ele>1476</ele>
        <time>2021-06-23T11:46:39.000Z</time>
      </trkpt>
      <trkpt lat="45.75041" lon="6.56906">
        <ele>1474.4000244141</ele>
        <time>2021-06-23T11:46:41.000Z</time>
      </trkpt>
      <trkpt lat="45.75039" lon="6.56899">
        <ele>1473.1999511719</ele>
        <time>2021-06-23T11:46:42.000Z</time>
      </trkpt>
      <trkpt lat="45.75036" lon="6.56893">
        <ele>1473.1999511719</ele>
        <time>2021-06-23T11:46:43.000Z</time>
      </trkpt>
      <trkpt lat="45.75027" lon="6.56887">
        <ele>1472.1999511719</ele>
        <time>2021-06-23T11:46:45.000Z</time>
      </trkpt>
      <trkpt lat="45.75023" lon="6.56887">
        <ele>1471.1999511719</ele>
        <time>2021-06-23T11:46:46.000Z</time>
      </trkpt>
      <trkpt lat="45.75019" lon="6.5689">
        <ele>1470.5999755859</ele>
        <time>2021-06-23T11:46:47.000Z</time>
      </trkpt>
      <trkpt lat="45.75017" lon="6.56894">
        <ele>1469.8000488281</ele>
        <time>2021-06-23T11:46:48.000Z</time>
      </trkpt>
      <trkpt lat="45.75016" lon="6.56898">
        <ele>1469.4000244141</ele>
        <time>2021-06-23T11:46:49.000Z</time>
      </trkpt>
      <trkpt lat="45.75016" lon="6.56903">
        <ele>1468.5999755859</ele>
        <time>2021-06-23T11:46:50.000Z</time>
      </trkpt>
      <trkpt lat="45.75016" lon="6.56907">
        <ele>1467.5999755859</ele>
        <time>2021-06-23T11:46:52.000Z</time>
      </trkpt>
      <trkpt lat="45.75017" lon="6.56907">
        <ele>1467</ele>
        <time>2021-06-23T11:46:53.000Z</time>
      </trkpt>
      <trkpt lat="45.75017" lon="6.56907">
        <ele>1466.1999511719</ele>
        <time>2021-06-23T11:46:54.000Z</time>
      </trkpt>
      <trkpt lat="45.75017" lon="6.56907">
        <ele>1465.8000488281</ele>
        <time>2021-06-23T11:46:55.000Z</time>
      </trkpt>
      <trkpt lat="45.75017" lon="6.56907">
        <ele>1465.4000244141</ele>
        <time>2021-06-23T11:46:56.000Z</time>
      </trkpt>
      <trkpt lat="45.75017" lon="6.56907">
        <ele>1465</ele>
        <time>2021-06-23T11:46:57.000Z</time>
      </trkpt>
      <trkpt lat="45.75017" lon="6.56908">
        <ele>1464.4000244141</ele>
        <time>2021-06-23T11:47:00.000Z</time>
      </trkpt>
      <trkpt lat="45.75018" lon="6.56909">
        <ele>1464.1999511719</ele>
        <time>2021-06-23T11:47:05.000Z</time>
      </trkpt>
      <trkpt lat="45.75019" lon="6.56909">
        <ele>1464</ele>
        <time>2021-06-23T11:47:06.000Z</time>
      </trkpt>
      <trkpt lat="45.7502" lon="6.56909">
        <ele>1464</ele>
        <time>2021-06-23T11:47:07.000Z</time>
      </trkpt>
      <trkpt lat="45.75022" lon="6.56911">
        <ele>1463.8000488281</ele>
        <time>2021-06-23T11:47:14.000Z</time>
      </trkpt>
      <trkpt lat="45.75022" lon="6.56912">
        <ele>1464</ele>
        <time>2021-06-23T11:47:22.000Z</time>
      </trkpt>
      <trkpt lat="45.75022" lon="6.56912">
        <ele>1464</ele>
        <time>2021-06-23T11:47:25.000Z</time>
      </trkpt>
      <trkpt lat="45.75021" lon="6.56912">
        <ele>1464</ele>
        <time>2021-06-23T11:47:34.000Z</time>
      </trkpt>
      <trkpt lat="45.75022" lon="6.56912">
        <ele>1464</ele>
        <time>2021-06-23T11:47:38.000Z</time>
      </trkpt>
      <trkpt lat="45.7502" lon="6.56912">
        <ele>1464</ele>
        <time>2021-06-23T11:47:47.000Z</time>
      </trkpt>
      <trkpt lat="45.7502" lon="6.56912">
        <ele>1464</ele>
        <time>2021-06-23T11:47:49.000Z</time>
      </trkpt>
      <trkpt lat="45.7502" lon="6.56912">
        <ele>1464.1999511719</ele>
        <time>2021-06-23T11:47:51.000Z</time>
      </trkpt>
      <trkpt lat="45.7502" lon="6.56912">
        <ele>1464.1999511719</ele>
        <time>2021-06-23T11:47:52.000Z</time>
      </trkpt>
      <trkpt lat="45.75019" lon="6.56912">
        <ele>1464</ele>
        <time>2021-06-23T11:48:04.000Z</time>
      </trkpt>
      <trkpt lat="45.7502" lon="6.56918">
        <ele>1464</ele>
        <time>2021-06-23T11:48:07.000Z</time>
      </trkpt>
      <trkpt lat="45.75021" lon="6.56931">
        <ele>1464</ele>
        <time>2021-06-23T11:48:10.000Z</time>
      </trkpt>
      <trkpt lat="45.75022" lon="6.56938">
        <ele>1463.8000488281</ele>
        <time>2021-06-23T11:48:11.000Z</time>
      </trkpt>
      <trkpt lat="45.75021" lon="6.56953">
        <ele>1463.8000488281</ele>
        <time>2021-06-23T11:48:13.000Z</time>
      </trkpt>
      <trkpt lat="45.75019" lon="6.56961">
        <ele>1463.5999755859</ele>
        <time>2021-06-23T11:48:14.000Z</time>
      </trkpt>
      <trkpt lat="45.75017" lon="6.56969">
        <ele>1463.5999755859</ele>
        <time>2021-06-23T11:48:15.000Z</time>
      </trkpt>
      <trkpt lat="45.75008" lon="6.56995">
        <ele>1463.1999511719</ele>
        <time>2021-06-23T11:48:18.000Z</time>
      </trkpt>
      <trkpt lat="45.75006" lon="6.57005">
        <ele>1463</ele>
        <time>2021-06-23T11:48:19.000Z</time>
      </trkpt>
      <trkpt lat="45.75007" lon="6.57024">
        <ele>1462.4000244141</ele>
        <time>2021-06-23T11:48:21.000Z</time>
      </trkpt>
      <trkpt lat="45.75011" lon="6.57034">
        <ele>1461.8000488281</ele>
        <time>2021-06-23T11:48:22.000Z</time>
      </trkpt>
      <trkpt lat="45.75016" lon="6.57042">
        <ele>1461.5999755859</ele>
        <time>2021-06-23T11:48:23.000Z</time>
      </trkpt>
      <trkpt lat="45.75022" lon="6.57051">
        <ele>1461.1999511719</ele>
        <time>2021-06-23T11:48:24.000Z</time>
      </trkpt>
      <trkpt lat="45.75029" lon="6.57059">
        <ele>1460.8000488281</ele>
        <time>2021-06-23T11:48:25.000Z</time>
      </trkpt>
      <trkpt lat="45.75043" lon="6.57075">
        <ele>1459.1999511719</ele>
        <time>2021-06-23T11:48:27.000Z</time>
      </trkpt>
      <trkpt lat="45.75056" lon="6.57091">
        <ele>1458.4000244141</ele>
        <time>2021-06-23T11:48:29.000Z</time>
      </trkpt>
      <trkpt lat="45.75063" lon="6.57098">
        <ele>1458</ele>
        <time>2021-06-23T11:48:30.000Z</time>
      </trkpt>
      <trkpt lat="45.75077" lon="6.57113">
        <ele>1457.1999511719</ele>
        <time>2021-06-23T11:48:32.000Z</time>
      </trkpt>
      <trkpt lat="45.75082" lon="6.57122">
        <ele>1456.1999511719</ele>
        <time>2021-06-23T11:48:33.000Z</time>
      </trkpt>
      <trkpt lat="45.75083" lon="6.57131">
        <ele>1455.4000244141</ele>
        <time>2021-06-23T11:48:34.000Z</time>
      </trkpt>
      <trkpt lat="45.75081" lon="6.57138">
        <ele>1455</ele>
        <time>2021-06-23T11:48:35.000Z</time>
      </trkpt>
      <trkpt lat="45.75077" lon="6.5714">
        <ele>1454.5999755859</ele>
        <time>2021-06-23T11:48:36.000Z</time>
      </trkpt>
      <trkpt lat="45.75072" lon="6.57138">
        <ele>1453.8000488281</ele>
        <time>2021-06-23T11:48:37.000Z</time>
      </trkpt>
      <trkpt lat="45.75067" lon="6.57133">
        <ele>1453.4000244141</ele>
        <time>2021-06-23T11:48:38.000Z</time>
      </trkpt>
      <trkpt lat="45.75056" lon="6.57121">
        <ele>1452.5999755859</ele>
        <time>2021-06-23T11:48:40.000Z</time>
      </trkpt>
      <trkpt lat="45.75049" lon="6.57114">
        <ele>1452.4000244141</ele>
        <time>2021-06-23T11:48:41.000Z</time>
      </trkpt>
      <trkpt lat="45.75041" lon="6.57109">
        <ele>1451.8000488281</ele>
        <time>2021-06-23T11:48:42.000Z</time>
      </trkpt>
      <trkpt lat="45.75032" lon="6.57105">
        <ele>1451.4000244141</ele>
        <time>2021-06-23T11:48:43.000Z</time>
      </trkpt>
      <trkpt lat="45.75015" lon="6.57099">
        <ele>1449.4000244141</ele>
        <time>2021-06-23T11:48:45.000Z</time>
      </trkpt>
      <trkpt lat="45.75006" lon="6.57095">
        <ele>1449.4000244141</ele>
        <time>2021-06-23T11:48:46.000Z</time>
      </trkpt>
      <trkpt lat="45.7499" lon="6.57083">
        <ele>1448.4000244141</ele>
        <time>2021-06-23T11:48:48.000Z</time>
      </trkpt>
      <trkpt lat="45.74976" lon="6.57066">
        <ele>1447</ele>
        <time>2021-06-23T11:48:50.000Z</time>
      </trkpt>
      <trkpt lat="45.74964" lon="6.57044">
        <ele>1445.5999755859</ele>
        <time>2021-06-23T11:48:52.000Z</time>
      </trkpt>
      <trkpt lat="45.74959" lon="6.57035">
        <ele>1444.5999755859</ele>
        <time>2021-06-23T11:48:53.000Z</time>
      </trkpt>
      <trkpt lat="45.74953" lon="6.57027">
        <ele>1443.8000488281</ele>
        <time>2021-06-23T11:48:54.000Z</time>
      </trkpt>
      <trkpt lat="45.74946" lon="6.5702">
        <ele>1443</ele>
        <time>2021-06-23T11:48:55.000Z</time>
      </trkpt>
      <trkpt lat="45.74934" lon="6.57011">
        <ele>1441</ele>
        <time>2021-06-23T11:48:57.000Z</time>
      </trkpt>
      <trkpt lat="45.74928" lon="6.57007">
        <ele>1440</ele>
        <time>2021-06-23T11:48:58.000Z</time>
      </trkpt>
      <trkpt lat="45.74919" lon="6.57001">
        <ele>1437.5999755859</ele>
        <time>2021-06-23T11:49:00.000Z</time>
      </trkpt>
      <trkpt lat="45.7491" lon="6.56994">
        <ele>1435</ele>
        <time>2021-06-23T11:49:02.000Z</time>
      </trkpt>
      <trkpt lat="45.74902" lon="6.56986">
        <ele>1433.4000244141</ele>
        <time>2021-06-23T11:49:04.000Z</time>
      </trkpt>
      <trkpt lat="45.74898" lon="6.56982">
        <ele>1432.8000488281</ele>
        <time>2021-06-23T11:49:05.000Z</time>
      </trkpt>
      <trkpt lat="45.7489" lon="6.56971">
        <ele>1432.1999511719</ele>
        <time>2021-06-23T11:49:07.000Z</time>
      </trkpt>
      <trkpt lat="45.74886" lon="6.56965">
        <ele>1431.1999511719</ele>
        <time>2021-06-23T11:49:08.000Z</time>
      </trkpt>
      <trkpt lat="45.74876" lon="6.56954">
        <ele>1429.8000488281</ele>
        <time>2021-06-23T11:49:10.000Z</time>
      </trkpt>
      <trkpt lat="45.74864" lon="6.56944">
        <ele>1428.8000488281</ele>
        <time>2021-06-23T11:49:12.000Z</time>
      </trkpt>
      <trkpt lat="45.74858" lon="6.56941">
        <ele>1428.4000244141</ele>
        <time>2021-06-23T11:49:13.000Z</time>
      </trkpt>
      <trkpt lat="45.74851" lon="6.56939">
        <ele>1428</ele>
        <time>2021-06-23T11:49:14.000Z</time>
      </trkpt>
      <trkpt lat="45.74844" lon="6.56938">
        <ele>1426.5999755859</ele>
        <time>2021-06-23T11:49:15.000Z</time>
      </trkpt>
      <trkpt lat="45.74838" lon="6.56937">
        <ele>1426.5999755859</ele>
        <time>2021-06-23T11:49:16.000Z</time>
      </trkpt>
      <trkpt lat="45.74832" lon="6.56938">
        <ele>1425.8000488281</ele>
        <time>2021-06-23T11:49:17.000Z</time>
      </trkpt>
      <trkpt lat="45.74829" lon="6.56941">
        <ele>1425.1999511719</ele>
        <time>2021-06-23T11:49:18.000Z</time>
      </trkpt>
      <trkpt lat="45.74826" lon="6.56945">
        <ele>1424.8000488281</ele>
        <time>2021-06-23T11:49:19.000Z</time>
      </trkpt>
      <trkpt lat="45.7485" lon="6.57008">
        <ele>1380.9</ele>
      </trkpt>
      <trkpt lat="45.7485" lon="6.57008">
        <ele>1380.9</ele>
      </trkpt>
      <trkpt lat="45.74885" lon="6.57061">
        <ele>1382.8</ele>
      </trkpt>
      <trkpt lat="45.74885" lon="6.57061">
        <ele>1382.8</ele>
      </trkpt>
      <trkpt lat="45.74906" lon="6.57097">
        <ele>1382</ele>
      </trkpt>
      <trkpt lat="45.74906" lon="6.57097">
        <ele>1382</ele>
      </trkpt>
      <trkpt lat="45.74915" lon="6.57131">
        <ele>1381</ele>
      </trkpt>
      <trkpt lat="45.74915" lon="6.57131">
        <ele>1381</ele>
      </trkpt>
      <trkpt lat="45.7494" lon="6.57157">
        <ele>1380.5</ele>
      </trkpt>
      <trkpt lat="45.7494" lon="6.57157">
        <ele>1380.5</ele>
      </trkpt>
      <trkpt lat="45.74954" lon="6.57189">
        <ele>1377.6</ele>
      </trkpt>
      <trkpt lat="45.74954" lon="6.57189">
        <ele>1377.6</ele>
      </trkpt>
      <trkpt lat="45.74947" lon="6.57198">
        <ele>1376.4</ele>
      </trkpt>
      <trkpt lat="45.74947" lon="6.57198">
        <ele>1376.4</ele>
      </trkpt>
      <trkpt lat="45.74949" lon="6.57221">
        <ele>1374</ele>
      </trkpt>
      <trkpt lat="45.74949" lon="6.57221">
        <ele>1374</ele>
      </trkpt>
      <trkpt lat="45.74967" lon="6.57257">
        <ele>1370.2</ele>
      </trkpt>
      <trkpt lat="45.74967" lon="6.57257">
        <ele>1370.2</ele>
      </trkpt>
      <trkpt lat="45.74984" lon="6.57289">
        <ele>1364.8</ele>
      </trkpt>
      <trkpt lat="45.74984" lon="6.57289">
        <ele>1364.8</ele>
      </trkpt>
      <trkpt lat="45.75024" lon="6.57326">
        <ele>1366.6</ele>
      </trkpt>
      <trkpt lat="45.75024" lon="6.57326">
        <ele>1366.6</ele>
      </trkpt>
      <trkpt lat="45.75042" lon="6.57343">
        <ele>1365.9</ele>
      </trkpt>
      <trkpt lat="45.75042" lon="6.57343">
        <ele>1365.9</ele>
      </trkpt>
      <trkpt lat="45.75067" lon="6.57381">
        <ele>1357.7</ele>
      </trkpt>
      <trkpt lat="45.75067" lon="6.57381">
        <ele>1357.7</ele>
      </trkpt>
      <trkpt lat="45.75081" lon="6.57407">
        <ele>1352.5</ele>
      </trkpt>
      <trkpt lat="45.75081" lon="6.57407">
        <ele>1352.5</ele>
      </trkpt>
      <trkpt lat="45.75091" lon="6.57413">
        <ele>1352.1</ele>
      </trkpt>
      <trkpt lat="45.75091" lon="6.57413">
        <ele>1352.1</ele>
      </trkpt>
      <trkpt lat="45.75099" lon="6.57444">
        <ele>1335.9</ele>
      </trkpt>
      <trkpt lat="45.75099" lon="6.57444">
        <ele>1335.9</ele>
      </trkpt>
      <trkpt lat="45.75107" lon="6.5746">
        <ele>1328</ele>
      </trkpt>
      <trkpt lat="45.75107" lon="6.5746">
        <ele>1328</ele>
      </trkpt>
      <trkpt lat="45.75099" lon="6.57467">
        <ele>1322.4</ele>
      </trkpt>
      <trkpt lat="45.75099" lon="6.57467">
        <ele>1322.4</ele>
      </trkpt>
      <trkpt lat="45.751" lon="6.57473">
        <ele>1319.3</ele>
      </trkpt>
      <trkpt lat="45.751" lon="6.57473">
        <ele>1319.3</ele>
      </trkpt>
      <trkpt lat="45.75092" lon="6.57477">
        <ele>1315.2</ele>
      </trkpt>
      <trkpt lat="45.75092" lon="6.57477">
        <ele>1315.2</ele>
      </trkpt>
      <trkpt lat="45.75065" lon="6.57476">
        <ele>1308.9</ele>
      </trkpt>
      <trkpt lat="45.75065" lon="6.57476">
        <ele>1308.9</ele>
      </trkpt>
      <trkpt lat="45.7506" lon="6.57471">
        <ele>1310.6</ele>
      </trkpt>
      <trkpt lat="45.75059" lon="6.5747">
        <ele>1343.4000244141</ele>
        <time>2021-06-23T11:58:10.000Z</time>
      </trkpt>
      <trkpt lat="45.75059" lon="6.5747">
        <ele>1343.4000244141</ele>
        <time>2021-06-23T11:58:10.000Z</time>
      </trkpt>
      <trkpt lat="45.75054" lon="6.57466">
        <ele>1343</ele>
        <time>2021-06-23T11:58:12.000Z</time>
      </trkpt>
      <trkpt lat="45.75052" lon="6.57464">
        <ele>1342</ele>
        <time>2021-06-23T11:58:13.000Z</time>
      </trkpt>
      <trkpt lat="45.75049" lon="6.57463">
        <ele>1341.5999755859</ele>
        <time>2021-06-23T11:58:14.000Z</time>
      </trkpt>
      <trkpt lat="45.75047" lon="6.57466">
        <ele>1341.1999511719</ele>
        <time>2021-06-23T11:58:15.000Z</time>
      </trkpt>
      <trkpt lat="45.75046" lon="6.57469">
        <ele>1340.8000488281</ele>
        <time>2021-06-23T11:58:16.000Z</time>
      </trkpt>
      <trkpt lat="45.75047" lon="6.57478">
        <ele>1339.1999511719</ele>
        <time>2021-06-23T11:58:18.000Z</time>
      </trkpt>
      <trkpt lat="45.75051" lon="6.57489">
        <ele>1338.1999511719</ele>
        <time>2021-06-23T11:58:20.000Z</time>
      </trkpt>
      <trkpt lat="45.75052" lon="6.57498">
        <ele>1337.4000244141</ele>
        <time>2021-06-23T11:58:22.000Z</time>
      </trkpt>
      <trkpt lat="45.7505" lon="6.575">
        <ele>1336.5999755859</ele>
        <time>2021-06-23T11:58:23.000Z</time>
      </trkpt>
      <trkpt lat="45.75049" lon="6.57499">
        <ele>1336</ele>
        <time>2021-06-23T11:58:24.000Z</time>
      </trkpt>
      <trkpt lat="45.75047" lon="6.57497">
        <ele>1335.4000244141</ele>
        <time>2021-06-23T11:58:25.000Z</time>
      </trkpt>
      <trkpt lat="45.75043" lon="6.57493">
        <ele>1333.5999755859</ele>
        <time>2021-06-23T11:58:27.000Z</time>
      </trkpt>
      <trkpt lat="45.75037" lon="6.57486">
        <ele>1332.1999511719</ele>
        <time>2021-06-23T11:58:29.000Z</time>
      </trkpt>
      <trkpt lat="45.75027" lon="6.57482">
        <ele>1331.4000244141</ele>
        <time>2021-06-23T11:58:31.000Z</time>
      </trkpt>
      <trkpt lat="45.75021" lon="6.5748">
        <ele>1331</ele>
        <time>2021-06-23T11:58:32.000Z</time>
      </trkpt>
      <trkpt lat="45.75" lon="6.57477">
        <ele>1330</ele>
        <time>2021-06-23T11:58:35.000Z</time>
      </trkpt>
      <trkpt lat="45.74993" lon="6.57477">
        <ele>1329.4000244141</ele>
        <time>2021-06-23T11:58:36.000Z</time>
      </trkpt>
      <trkpt lat="45.74987" lon="6.57478">
        <ele>1328.8000488281</ele>
        <time>2021-06-23T11:58:37.000Z</time>
      </trkpt>
      <trkpt lat="45.74982" lon="6.57478">
        <ele>1327.8000488281</ele>
        <time>2021-06-23T11:58:38.000Z</time>
      </trkpt>
      <trkpt lat="45.74978" lon="6.57478">
        <ele>1326.8000488281</ele>
        <time>2021-06-23T11:58:39.000Z</time>
      </trkpt>
      <trkpt lat="45.74971" lon="6.57476">
        <ele>1325.5999755859</ele>
        <time>2021-06-23T11:58:41.000Z</time>
      </trkpt>
      <trkpt lat="45.74966" lon="6.57473">
        <ele>1324.5999755859</ele>
        <time>2021-06-23T11:58:43.000Z</time>
      </trkpt>
      <trkpt lat="45.74964" lon="6.5747">
        <ele>1324.1999511719</ele>
        <time>2021-06-23T11:58:44.000Z</time>
      </trkpt>
      <trkpt lat="45.74962" lon="6.57467">
        <ele>1323.4000244141</ele>
        <time>2021-06-23T11:58:45.000Z</time>
      </trkpt>
      <trkpt lat="45.74958" lon="6.57461">
        <ele>1321.5999755859</ele>
        <time>2021-06-23T11:58:47.000Z</time>
      </trkpt>
      <trkpt lat="45.74954" lon="6.57458">
        <ele>1320.4000244141</ele>
        <time>2021-06-23T11:58:49.000Z</time>
      </trkpt>
      <trkpt lat="45.74954" lon="6.57458">
        <ele>1320.1999511719</ele>
        <time>2021-06-23T11:58:50.000Z</time>
      </trkpt>
      <trkpt lat="45.74953" lon="6.57457">
        <ele>1319.1999511719</ele>
        <time>2021-06-23T11:58:53.000Z</time>
      </trkpt>
      <trkpt lat="45.74952" lon="6.57458">
        <ele>1318.1999511719</ele>
        <time>2021-06-23T11:58:56.000Z</time>
      </trkpt>
      <trkpt lat="45.74951" lon="6.57457">
        <ele>1317.8000488281</ele>
        <time>2021-06-23T11:59:00.000Z</time>
      </trkpt>
      <trkpt lat="45.7495" lon="6.57465">
        <ele>1317.8000488281</ele>
        <time>2021-06-23T11:59:07.000Z</time>
      </trkpt>
      <trkpt lat="45.74951" lon="6.57469">
        <ele>1317.8000488281</ele>
        <time>2021-06-23T11:59:09.000Z</time>
      </trkpt>
      <trkpt lat="45.74951" lon="6.57471">
        <ele>1317.5999755859</ele>
        <time>2021-06-23T11:59:16.000Z</time>
      </trkpt>
      <trkpt lat="45.74954" lon="6.57476">
        <ele>1317.4000244141</ele>
        <time>2021-06-23T11:59:21.000Z</time>
      </trkpt>
      <trkpt lat="45.74954" lon="6.57477">
        <ele>1317.1999511719</ele>
        <time>2021-06-23T11:59:22.000Z</time>
      </trkpt>
      <trkpt lat="45.74954" lon="6.57477">
        <ele>1317.1999511719</ele>
        <time>2021-06-23T11:59:23.000Z</time>
      </trkpt>
      <trkpt lat="45.74956" lon="6.57479">
        <ele>1317</ele>
        <time>2021-06-23T11:59:25.000Z</time>
      </trkpt>
      <trkpt lat="45.74961" lon="6.57482">
        <ele>1317</ele>
        <time>2021-06-23T11:59:29.000Z</time>
      </trkpt>
      <trkpt lat="45.74969" lon="6.57489">
        <ele>1316.8000488281</ele>
        <time>2021-06-23T11:59:33.000Z</time>
      </trkpt>
      <trkpt lat="45.74971" lon="6.5749">
        <ele>1316.8000488281</ele>
        <time>2021-06-23T11:59:34.000Z</time>
      </trkpt>
      <trkpt lat="45.74976" lon="6.57494">
        <ele>1316.8000488281</ele>
        <time>2021-06-23T11:59:36.000Z</time>
      </trkpt>
      <trkpt lat="45.74977" lon="6.57498">
        <ele>1316.4000244141</ele>
        <time>2021-06-23T11:59:38.000Z</time>
      </trkpt>
      <trkpt lat="45.74977" lon="6.57499">
        <ele>1316</ele>
        <time>2021-06-23T11:59:40.000Z</time>
      </trkpt>
      <trkpt lat="45.74977" lon="6.57499">
        <ele>1315.8000488281</ele>
        <time>2021-06-23T11:59:42.000Z</time>
      </trkpt>
      <trkpt lat="45.74978" lon="6.57499">
        <ele>1315</ele>
        <time>2021-06-23T11:59:46.000Z</time>
      </trkpt>
      <trkpt lat="45.74976" lon="6.57499">
        <ele>1314.4000244141</ele>
        <time>2021-06-23T11:59:49.000Z</time>
      </trkpt>
      <trkpt lat="45.74973" lon="6.57498">
        <ele>1314.1999511719</ele>
        <time>2021-06-23T11:59:51.000Z</time>
      </trkpt>
      <trkpt lat="45.74968" lon="6.57498">
        <ele>1314.1999511719</ele>
        <time>2021-06-23T11:59:54.000Z</time>
      </trkpt>
      <trkpt lat="45.74965" lon="6.57496">
        <ele>1314</ele>
        <time>2021-06-23T11:59:56.000Z</time>
      </trkpt>
      <trkpt lat="45.74962" lon="6.57494">
        <ele>1313.8000488281</ele>
        <time>2021-06-23T11:59:58.000Z</time>
      </trkpt>
      <trkpt lat="45.74957" lon="6.57488">
        <ele>1312.5999755859</ele>
        <time>2021-06-23T12:00:02.000Z</time>
      </trkpt>
      <trkpt lat="45.74956" lon="6.57487">
        <ele>1312.1999511719</ele>
        <time>2021-06-23T12:00:03.000Z</time>
      </trkpt>
      <trkpt lat="45.74954" lon="6.57484">
        <ele>1311.8000488281</ele>
        <time>2021-06-23T12:00:06.000Z</time>
      </trkpt>
      <trkpt lat="45.74953" lon="6.57484">
        <ele>1311.4000244141</ele>
        <time>2021-06-23T12:00:07.000Z</time>
      </trkpt>
      <trkpt lat="45.74953" lon="6.57484">
        <ele>1310.5999755859</ele>
        <time>2021-06-23T12:00:09.000Z</time>
      </trkpt>
      <trkpt lat="45.74953" lon="6.57484">
        <ele>1310.1999511719</ele>
        <time>2021-06-23T12:00:10.000Z</time>
      </trkpt>
      <trkpt lat="45.74952" lon="6.57484">
        <ele>1309.4000244141</ele>
        <time>2021-06-23T12:00:13.000Z</time>
      </trkpt>
      <trkpt lat="45.74952" lon="6.57484">
        <ele>1309.1999511719</ele>
        <time>2021-06-23T12:00:14.000Z</time>
      </trkpt>
      <trkpt lat="45.74952" lon="6.57485">
        <ele>1308.8000488281</ele>
        <time>2021-06-23T12:00:17.000Z</time>
      </trkpt>
      <trkpt lat="45.74952" lon="6.57486">
        <ele>1308.8000488281</ele>
        <time>2021-06-23T12:00:18.000Z</time>
      </trkpt>
      <trkpt lat="45.74952" lon="6.57486">
        <ele>1308.8000488281</ele>
        <time>2021-06-23T12:00:19.000Z</time>
      </trkpt>
      <trkpt lat="45.74951" lon="6.57489">
        <ele>1308.5999755859</ele>
        <time>2021-06-23T12:00:26.000Z</time>
      </trkpt>
      <trkpt lat="45.74952" lon="6.57489">
        <ele>1308.4000244141</ele>
        <time>2021-06-23T12:00:29.000Z</time>
      </trkpt>
      <trkpt lat="45.74952" lon="6.57491">
        <ele>1308.8000488281</ele>
        <time>2021-06-23T12:00:37.000Z</time>
      </trkpt>
      <trkpt lat="45.74952" lon="6.57491">
        <ele>1308.8000488281</ele>
        <time>2021-06-23T12:00:41.000Z</time>
      </trkpt>
      <trkpt lat="45.74952" lon="6.57491">
        <ele>1308.8000488281</ele>
        <time>2021-06-23T12:00:44.000Z</time>
      </trkpt>
      <trkpt lat="45.74951" lon="6.57492">
        <ele>1308.8000488281</ele>
        <time>2021-06-23T12:00:53.000Z</time>
      </trkpt>
      <trkpt lat="45.74952" lon="6.57491">
        <ele>1308.8000488281</ele>
        <time>2021-06-23T12:00:57.000Z</time>
      </trkpt>
      <trkpt lat="45.74953" lon="6.57493">
        <ele>1308.8000488281</ele>
        <time>2021-06-23T12:01:02.000Z</time>
      </trkpt>
      <trkpt lat="45.74951" lon="6.57496">
        <ele>1308.8000488281</ele>
        <time>2021-06-23T12:01:10.000Z</time>
      </trkpt>
      <trkpt lat="45.7495" lon="6.57496">
        <ele>1308.8000488281</ele>
        <time>2021-06-23T12:01:12.000Z</time>
      </trkpt>
      <trkpt lat="45.7495" lon="6.57496">
        <ele>1308.8000488281</ele>
        <time>2021-06-23T12:01:14.000Z</time>
      </trkpt>
      <trkpt lat="45.7495" lon="6.57496">
        <ele>1308.8000488281</ele>
        <time>2021-06-23T12:01:15.000Z</time>
      </trkpt>
      <trkpt lat="45.74949" lon="6.57496">
        <ele>1308.8000488281</ele>
        <time>2021-06-23T12:01:16.000Z</time>
      </trkpt>
      <trkpt lat="45.74948" lon="6.57497">
        <ele>1308.8000488281</ele>
        <time>2021-06-23T12:01:18.000Z</time>
      </trkpt>
      <trkpt lat="45.74949" lon="6.57495">
        <ele>1308.8000488281</ele>
        <time>2021-06-23T12:01:20.000Z</time>
      </trkpt>
      <trkpt lat="45.74949" lon="6.57493">
        <ele>1308.8000488281</ele>
        <time>2021-06-23T12:01:25.000Z</time>
      </trkpt>
      <trkpt lat="45.7495" lon="6.57493">
        <ele>1308.8000488281</ele>
        <time>2021-06-23T12:01:29.000Z</time>
      </trkpt>
      <trkpt lat="45.74952" lon="6.57494">
        <ele>1308.8000488281</ele>
        <time>2021-06-23T12:01:33.000Z</time>
      </trkpt>
      <trkpt lat="45.74952" lon="6.57492">
        <ele>1308.5999755859</ele>
        <time>2021-06-23T12:01:38.000Z</time>
      </trkpt>
      <trkpt lat="45.74953" lon="6.57489">
        <ele>1308.4000244141</ele>
        <time>2021-06-23T12:01:44.000Z</time>
      </trkpt>
      <trkpt lat="45.74953" lon="6.57489">
        <ele>1308.4000244141</ele>
        <time>2021-06-23T12:01:45.000Z</time>
      </trkpt>
      <trkpt lat="45.74953" lon="6.5749">
        <ele>1308.1999511719</ele>
        <time>2021-06-23T12:01:47.000Z</time>
      </trkpt>
      <trkpt lat="45.74953" lon="6.5749">
        <ele>1308</ele>
        <time>2021-06-23T12:01:48.000Z</time>
      </trkpt>
      <trkpt lat="45.74952" lon="6.57492">
        <ele>1308</ele>
        <time>2021-06-23T12:01:52.000Z</time>
      </trkpt>
      <trkpt lat="45.7495" lon="6.57493">
        <ele>1308</ele>
        <time>2021-06-23T12:01:55.000Z</time>
      </trkpt>
      <trkpt lat="45.7495" lon="6.57494">
        <ele>1308</ele>
        <time>2021-06-23T12:01:56.000Z</time>
      </trkpt>
      <trkpt lat="45.74948" lon="6.57497">
        <ele>1307.8000488281</ele>
        <time>2021-06-23T12:02:02.000Z</time>
      </trkpt>
      <trkpt lat="45.74948" lon="6.57496">
        <ele>1307.8000488281</ele>
        <time>2021-06-23T12:02:05.000Z</time>
      </trkpt>
      <trkpt lat="45.74949" lon="6.57498">
        <ele>1307.8000488281</ele>
        <time>2021-06-23T12:02:07.000Z</time>
      </trkpt>
      <trkpt lat="45.7495" lon="6.57502">
        <ele>1307.8000488281</ele>
        <time>2021-06-23T12:02:09.000Z</time>
      </trkpt>
      <trkpt lat="45.74953" lon="6.57512">
        <ele>1307.4000244141</ele>
        <time>2021-06-23T12:02:13.000Z</time>
      </trkpt>
      <trkpt lat="45.74955" lon="6.57518">
        <ele>1307</ele>
        <time>2021-06-23T12:02:15.000Z</time>
      </trkpt>
      <trkpt lat="45.74956" lon="6.5752">
        <ele>1306.4000244141</ele>
        <time>2021-06-23T12:02:16.000Z</time>
      </trkpt>
      <trkpt lat="45.74955" lon="6.57528">
        <ele>1305.1999511719</ele>
        <time>2021-06-23T12:02:19.000Z</time>
      </trkpt>
      <trkpt lat="45.74955" lon="6.57531">
        <ele>1304.1999511719</ele>
        <time>2021-06-23T12:02:20.000Z</time>
      </trkpt>
      <trkpt lat="45.74953" lon="6.57533">
        <ele>1303.4000244141</ele>
        <time>2021-06-23T12:02:21.000Z</time>
      </trkpt>
      <trkpt lat="45.74951" lon="6.57534">
        <ele>1303</ele>
        <time>2021-06-23T12:02:22.000Z</time>
      </trkpt>
      <trkpt lat="45.74946" lon="6.57533">
        <ele>1301.5999755859</ele>
        <time>2021-06-23T12:02:24.000Z</time>
      </trkpt>
      <trkpt lat="45.74944" lon="6.57533">
        <ele>1301</ele>
        <time>2021-06-23T12:02:25.000Z</time>
      </trkpt>
      <trkpt lat="45.74942" lon="6.57533">
        <ele>1300.4000244141</ele>
        <time>2021-06-23T12:02:26.000Z</time>
      </trkpt>
      <trkpt lat="45.74939" lon="6.57537">
        <ele>1298.5999755859</ele>
        <time>2021-06-23T12:02:28.000Z</time>
      </trkpt>
      <trkpt lat="45.7494" lon="6.57539">
        <ele>1298</ele>
        <time>2021-06-23T12:02:29.000Z</time>
      </trkpt>
      <trkpt lat="45.7494" lon="6.57543">
        <ele>1297.5999755859</ele>
        <time>2021-06-23T12:02:30.000Z</time>
      </trkpt>
      <trkpt lat="45.74941" lon="6.57549">
        <ele>1296.1999511719</ele>
        <time>2021-06-23T12:02:32.000Z</time>
      </trkpt>
      <trkpt lat="45.74945" lon="6.57553">
        <ele>1295</ele>
        <time>2021-06-23T12:02:34.000Z</time>
      </trkpt>
      <trkpt lat="45.74946" lon="6.57555">
        <ele>1294.5999755859</ele>
        <time>2021-06-23T12:02:35.000Z</time>
      </trkpt>
      <trkpt lat="45.74947" lon="6.5756">
        <ele>1293.1999511719</ele>
        <time>2021-06-23T12:02:37.000Z</time>
      </trkpt>
      <trkpt lat="45.74944" lon="6.57563">
        <ele>1292.1999511719</ele>
        <time>2021-06-23T12:02:39.000Z</time>
      </trkpt>
      <trkpt lat="45.74943" lon="6.57564">
        <ele>1291</ele>
        <time>2021-06-23T12:02:40.000Z</time>
      </trkpt>
      <trkpt lat="45.74942" lon="6.57564">
        <ele>1289.4000244141</ele>
        <time>2021-06-23T12:02:42.000Z</time>
      </trkpt>
      <trkpt lat="45.74942" lon="6.57564">
        <ele>1288.8000488281</ele>
        <time>2021-06-23T12:02:44.000Z</time>
      </trkpt>
      <trkpt lat="45.74942" lon="6.57564">
        <ele>1287.8000488281</ele>
        <time>2021-06-23T12:02:45.000Z</time>
      </trkpt>
      <trkpt lat="45.74942" lon="6.57563">
        <ele>1286.5999755859</ele>
        <time>2021-06-23T12:02:47.000Z</time>
      </trkpt>
      <trkpt lat="45.74942" lon="6.57563">
        <ele>1285.5999755859</ele>
        <time>2021-06-23T12:02:49.000Z</time>
      </trkpt>
      <trkpt lat="45.74942" lon="6.57563">
        <ele>1284.8000488281</ele>
        <time>2021-06-23T12:02:56.000Z</time>
      </trkpt>
      <trkpt lat="45.74942" lon="6.57565">
        <ele>1284.5999755859</ele>
        <time>2021-06-23T12:03:01.000Z</time>
      </trkpt>
      <trkpt lat="45.74942" lon="6.57565">
        <ele>1284.5999755859</ele>
        <time>2021-06-23T12:03:02.000Z</time>
      </trkpt>
      <trkpt lat="45.74944" lon="6.57561">
        <ele>1284.4000244141</ele>
        <time>2021-06-23T12:03:14.000Z</time>
      </trkpt>
      <trkpt lat="45.74944" lon="6.57564">
        <ele>1284.4000244141</ele>
        <time>2021-06-23T12:03:17.000Z</time>
      </trkpt>
      <trkpt lat="45.74943" lon="6.57566">
        <ele>1284.5999755859</ele>
        <time>2021-06-23T12:03:23.000Z</time>
      </trkpt>
      <trkpt lat="45.74943" lon="6.57566">
        <ele>1284.5999755859</ele>
        <time>2021-06-23T12:03:25.000Z</time>
      </trkpt>
      <trkpt lat="45.74942" lon="6.57566">
        <ele>1284.5999755859</ele>
        <time>2021-06-23T12:03:27.000Z</time>
      </trkpt>
      <trkpt lat="45.74943" lon="6.57564">
        <ele>1284.5999755859</ele>
        <time>2021-06-23T12:03:34.000Z</time>
      </trkpt>
      <trkpt lat="45.74943" lon="6.57564">
        <ele>1284.5999755859</ele>
        <time>2021-06-23T12:03:36.000Z</time>
      </trkpt>
      <trkpt lat="45.74942" lon="6.57564">
        <ele>1284.5999755859</ele>
        <time>2021-06-23T12:03:43.000Z</time>
      </trkpt>
      <trkpt lat="45.74941" lon="6.57564">
        <ele>1284.5999755859</ele>
        <time>2021-06-23T12:03:47.000Z</time>
      </trkpt>
      <trkpt lat="45.74939" lon="6.5756">
        <ele>1284.1999511719</ele>
        <time>2021-06-23T12:03:55.000Z</time>
      </trkpt>
      <trkpt lat="45.74936" lon="6.57559">
        <ele>1283.4000244141</ele>
        <time>2021-06-23T12:04:01.000Z</time>
      </trkpt>
      <trkpt lat="45.74933" lon="6.57558">
        <ele>1282.4000244141</ele>
        <time>2021-06-23T12:04:08.000Z</time>
      </trkpt>
      <trkpt lat="45.7493" lon="6.57559">
        <ele>1281.4000244141</ele>
        <time>2021-06-23T12:04:16.000Z</time>
      </trkpt>
      <trkpt lat="45.74928" lon="6.5756">
        <ele>1280.4000244141</ele>
        <time>2021-06-23T12:04:20.000Z</time>
      </trkpt>
      <trkpt lat="45.74927" lon="6.57562">
        <ele>1279.8000488281</ele>
        <time>2021-06-23T12:04:23.000Z</time>
      </trkpt>
      <trkpt lat="45.74926" lon="6.57563">
        <ele>1279.4000244141</ele>
        <time>2021-06-23T12:04:26.000Z</time>
      </trkpt>
      <trkpt lat="45.74924" lon="6.57567">
        <ele>1278.1999511719</ele>
        <time>2021-06-23T12:04:34.000Z</time>
      </trkpt>
      <trkpt lat="45.74923" lon="6.5757">
        <ele>1277.1999511719</ele>
        <time>2021-06-23T12:04:37.000Z</time>
      </trkpt>
      <trkpt lat="45.74922" lon="6.57572">
        <ele>1276.8000488281</ele>
        <time>2021-06-23T12:04:39.000Z</time>
      </trkpt>
      <trkpt lat="45.74921" lon="6.57574">
        <ele>1276.5999755859</ele>
        <time>2021-06-23T12:04:40.000Z</time>
      </trkpt>
      <trkpt lat="45.7492" lon="6.57575">
        <ele>1276</ele>
        <time>2021-06-23T12:04:43.000Z</time>
      </trkpt>
      <trkpt lat="45.74918" lon="6.57576">
        <ele>1275</ele>
        <time>2021-06-23T12:04:46.000Z</time>
      </trkpt>
      <trkpt lat="45.74913" lon="6.57579">
        <ele>1274</ele>
        <time>2021-06-23T12:04:52.000Z</time>
      </trkpt>
      <trkpt lat="45.74912" lon="6.57578">
        <ele>1273.8000488281</ele>
        <time>2021-06-23T12:04:53.000Z</time>
      </trkpt>
      <trkpt lat="45.74909" lon="6.57579">
        <ele>1272.8000488281</ele>
        <time>2021-06-23T12:04:56.000Z</time>
      </trkpt>
      <trkpt lat="45.74907" lon="6.5758">
        <ele>1272.5999755859</ele>
        <time>2021-06-23T12:04:57.000Z</time>
      </trkpt>
      <trkpt lat="45.74901" lon="6.57582">
        <ele>1271.4000244141</ele>
        <time>2021-06-23T12:05:02.000Z</time>
      </trkpt>
      <trkpt lat="45.74899" lon="6.57581">
        <ele>1271</ele>
        <time>2021-06-23T12:05:05.000Z</time>
      </trkpt>
      <trkpt lat="45.74897" lon="6.5758">
        <ele>1270.4000244141</ele>
        <time>2021-06-23T12:05:08.000Z</time>
      </trkpt>
      <trkpt lat="45.74895" lon="6.57579">
        <ele>1270</ele>
        <time>2021-06-23T12:05:10.000Z</time>
      </trkpt>
      <trkpt lat="45.74892" lon="6.57578">
        <ele>1269.4000244141</ele>
        <time>2021-06-23T12:05:13.000Z</time>
      </trkpt>
      <trkpt lat="45.74891" lon="6.57577">
        <ele>1269.1999511719</ele>
        <time>2021-06-23T12:05:14.000Z</time>
      </trkpt>
      <trkpt lat="45.7489" lon="6.57577">
        <ele>1268.4000244141</ele>
        <time>2021-06-23T12:05:19.000Z</time>
      </trkpt>
      <trkpt lat="45.74889" lon="6.57577">
        <ele>1268</ele>
        <time>2021-06-23T12:05:21.000Z</time>
      </trkpt>
      <trkpt lat="45.74885" lon="6.57576">
        <ele>1267</ele>
        <time>2021-06-23T12:05:28.000Z</time>
      </trkpt>
      <trkpt lat="45.74885" lon="6.57576">
        <ele>1266.8000488281</ele>
        <time>2021-06-23T12:05:31.000Z</time>
      </trkpt>
      <trkpt lat="45.74883" lon="6.57574">
        <ele>1266.5999755859</ele>
        <time>2021-06-23T12:05:34.000Z</time>
      </trkpt>
      <trkpt lat="45.7488" lon="6.57574">
        <ele>1266.4000244141</ele>
        <time>2021-06-23T12:05:38.000Z</time>
      </trkpt>
      <trkpt lat="45.74878" lon="6.57574">
        <ele>1266.1999511719</ele>
        <time>2021-06-23T12:05:40.000Z</time>
      </trkpt>
      <trkpt lat="45.74877" lon="6.57575">
        <ele>1265.8000488281</ele>
        <time>2021-06-23T12:05:43.000Z</time>
      </trkpt>
      <trkpt lat="45.74875" lon="6.57582">
        <ele>1265</ele>
        <time>2021-06-23T12:05:48.000Z</time>
      </trkpt>
      <trkpt lat="45.74874" lon="6.57584">
        <ele>1264.8000488281</ele>
        <time>2021-06-23T12:05:49.000Z</time>
      </trkpt>
      <trkpt lat="45.74874" lon="6.57586">
        <ele>1264.4000244141</ele>
        <time>2021-06-23T12:05:50.000Z</time>
      </trkpt>
      <trkpt lat="45.74874" lon="6.57592">
        <ele>1263.5999755859</ele>
        <time>2021-06-23T12:05:53.000Z</time>
      </trkpt>
      <trkpt lat="45.74874" lon="6.57593">
        <ele>1262.4000244141</ele>
        <time>2021-06-23T12:05:57.000Z</time>
      </trkpt>
      <trkpt lat="45.74875" lon="6.57593">
        <ele>1261.8000488281</ele>
        <time>2021-06-23T12:05:58.000Z</time>
      </trkpt>
      <trkpt lat="45.74875" lon="6.57594">
        <ele>1261.1999511719</ele>
        <time>2021-06-23T12:05:59.000Z</time>
      </trkpt>
      <trkpt lat="45.74876" lon="6.57595">
        <ele>1260.1999511719</ele>
        <time>2021-06-23T12:06:03.000Z</time>
      </trkpt>
      <trkpt lat="45.74876" lon="6.57601">
        <ele>1259.8000488281</ele>
        <time>2021-06-23T12:06:09.000Z</time>
      </trkpt>
      <trkpt lat="45.74875" lon="6.57604">
        <ele>1259.5999755859</ele>
        <time>2021-06-23T12:06:11.000Z</time>
      </trkpt>
      <trkpt lat="45.74875" lon="6.57605">
        <ele>1259</ele>
        <time>2021-06-23T12:06:13.000Z</time>
      </trkpt>
      <trkpt lat="45.74875" lon="6.57606">
        <ele>1258.8000488281</ele>
        <time>2021-06-23T12:06:16.000Z</time>
      </trkpt>
      <trkpt lat="45.74875" lon="6.57608">
        <ele>1258.4000244141</ele>
        <time>2021-06-23T12:06:20.000Z</time>
      </trkpt>
      <trkpt lat="45.74876" lon="6.57606">
        <ele>1258.1999511719</ele>
        <time>2021-06-23T12:06:35.000Z</time>
      </trkpt>
      <trkpt lat="45.74875" lon="6.57606">
        <ele>1258.1999511719</ele>
        <time>2021-06-23T12:06:36.000Z</time>
      </trkpt>
      <trkpt lat="45.74874" lon="6.57607">
        <ele>1258.1999511719</ele>
        <time>2021-06-23T12:06:39.000Z</time>
      </trkpt>
      <trkpt lat="45.74873" lon="6.57608">
        <ele>1258.1999511719</ele>
        <time>2021-06-23T12:06:42.000Z</time>
      </trkpt>
      <trkpt lat="45.74867" lon="6.57613">
        <ele>1258.1999511719</ele>
        <time>2021-06-23T12:06:47.000Z</time>
      </trkpt>
      <trkpt lat="45.74866" lon="6.57614">
        <ele>1257.8000488281</ele>
        <time>2021-06-23T12:06:48.000Z</time>
      </trkpt>
      <trkpt lat="45.74864" lon="6.57616">
        <ele>1257.1999511719</ele>
        <time>2021-06-23T12:06:49.000Z</time>
      </trkpt>
      <trkpt lat="45.74861" lon="6.57624">
        <ele>1256.8000488281</ele>
        <time>2021-06-23T12:06:52.000Z</time>
      </trkpt>
      <trkpt lat="45.74853" lon="6.57629">
        <ele>1255.4000244141</ele>
        <time>2021-06-23T12:06:55.000Z</time>
      </trkpt>
      <trkpt lat="45.7485" lon="6.5763">
        <ele>1254.8000488281</ele>
        <time>2021-06-23T12:06:56.000Z</time>
      </trkpt>
      <trkpt lat="45.74846" lon="6.5763">
        <ele>1253.8000488281</ele>
        <time>2021-06-23T12:06:57.000Z</time>
      </trkpt>
      <trkpt lat="45.74838" lon="6.57628">
        <ele>1252.1999511719</ele>
        <time>2021-06-23T12:06:59.000Z</time>
      </trkpt>
      <trkpt lat="45.74832" lon="6.57624">
        <ele>1250.5999755859</ele>
        <time>2021-06-23T12:07:01.000Z</time>
      </trkpt>
      <trkpt lat="45.74825" lon="6.57623">
        <ele>1248.8000488281</ele>
        <time>2021-06-23T12:07:03.000Z</time>
      </trkpt>
      <trkpt lat="45.74819" lon="6.57626">
        <ele>1247.5999755859</ele>
        <time>2021-06-23T12:07:05.000Z</time>
      </trkpt>
      <trkpt lat="45.74815" lon="6.57628">
        <ele>1245.8000488281</ele>
        <time>2021-06-23T12:07:06.000Z</time>
      </trkpt>
      <trkpt lat="45.74812" lon="6.57631">
        <ele>1244.8000488281</ele>
        <time>2021-06-23T12:07:07.000Z</time>
      </trkpt>
      <trkpt lat="45.74808" lon="6.57638">
        <ele>1243.4000244141</ele>
        <time>2021-06-23T12:07:09.000Z</time>
      </trkpt>
      <trkpt lat="45.74807" lon="6.57642">
        <ele>1242.8000488281</ele>
        <time>2021-06-23T12:07:10.000Z</time>
      </trkpt>
      <trkpt lat="45.74806" lon="6.57646">
        <ele>1241.8000488281</ele>
        <time>2021-06-23T12:07:11.000Z</time>
      </trkpt>
      <trkpt lat="45.74805" lon="6.57651">
        <ele>1240.5999755859</ele>
        <time>2021-06-23T12:07:12.000Z</time>
      </trkpt>
      <trkpt lat="45.74804" lon="6.57655">
        <ele>1239.5999755859</ele>
        <time>2021-06-23T12:07:13.000Z</time>
      </trkpt>
      <trkpt lat="45.74803" lon="6.5766">
        <ele>1238.4000244141</ele>
        <time>2021-06-23T12:07:14.000Z</time>
      </trkpt>
      <trkpt lat="45.74802" lon="6.5767">
        <ele>1236.5999755859</ele>
        <time>2021-06-23T12:07:16.000Z</time>
      </trkpt>
      <trkpt lat="45.74801" lon="6.57675">
        <ele>1235.8000488281</ele>
        <time>2021-06-23T12:07:17.000Z</time>
      </trkpt>
      <trkpt lat="45.74801" lon="6.57681">
        <ele>1235.4000244141</ele>
        <time>2021-06-23T12:07:18.000Z</time>
      </trkpt>
      <trkpt lat="45.748" lon="6.57691">
        <ele>1233.8000488281</ele>
        <time>2021-06-23T12:07:20.000Z</time>
      </trkpt>
      <trkpt lat="45.74798" lon="6.57695">
        <ele>1232.5999755859</ele>
        <time>2021-06-23T12:07:21.000Z</time>
      </trkpt>
      <trkpt lat="45.74796" lon="6.57699">
        <ele>1231.1999511719</ele>
        <time>2021-06-23T12:07:22.000Z</time>
      </trkpt>
      <trkpt lat="45.74793" lon="6.57706">
        <ele>1230</ele>
        <time>2021-06-23T12:07:24.000Z</time>
      </trkpt>
      <trkpt lat="45.74792" lon="6.57715">
        <ele>1229</ele>
        <time>2021-06-23T12:07:26.000Z</time>
      </trkpt>
      <trkpt lat="45.74792" lon="6.5772">
        <ele>1228.1999511719</ele>
        <time>2021-06-23T12:07:27.000Z</time>
      </trkpt>
      <trkpt lat="45.74791" lon="6.57725">
        <ele>1227.5999755859</ele>
        <time>2021-06-23T12:07:28.000Z</time>
      </trkpt>
      <trkpt lat="45.74789" lon="6.57728">
        <ele>1226.5999755859</ele>
        <time>2021-06-23T12:07:29.000Z</time>
      </trkpt>
      <trkpt lat="45.74786" lon="6.57732">
        <ele>1224.8000488281</ele>
        <time>2021-06-23T12:07:31.000Z</time>
      </trkpt>
      <trkpt lat="45.74783" lon="6.57735">
        <ele>1223</ele>
        <time>2021-06-23T12:07:33.000Z</time>
      </trkpt>
      <trkpt lat="45.74779" lon="6.57739">
        <ele>1221.5999755859</ele>
        <time>2021-06-23T12:07:35.000Z</time>
      </trkpt>
      <trkpt lat="45.74777" lon="6.5774">
        <ele>1221</ele>
        <time>2021-06-23T12:07:36.000Z</time>
      </trkpt>
      <trkpt lat="45.74775" lon="6.5774">
        <ele>1220.1999511719</ele>
        <time>2021-06-23T12:07:37.000Z</time>
      </trkpt>
      <trkpt lat="45.74771" lon="6.57741">
        <ele>1218.5999755859</ele>
        <time>2021-06-23T12:07:39.000Z</time>
      </trkpt>
      <trkpt lat="45.74768" lon="6.57742">
        <ele>1216.8000488281</ele>
        <time>2021-06-23T12:07:41.000Z</time>
      </trkpt>
      <trkpt lat="45.74767" lon="6.57743">
        <ele>1216.1999511719</ele>
        <time>2021-06-23T12:07:42.000Z</time>
      </trkpt>
      <trkpt lat="45.74766" lon="6.57744">
        <ele>1215.5999755859</ele>
        <time>2021-06-23T12:07:43.000Z</time>
      </trkpt>
      <trkpt lat="45.74765" lon="6.57746">
        <ele>1214.8000488281</ele>
        <time>2021-06-23T12:07:45.000Z</time>
      </trkpt>
      <trkpt lat="45.74766" lon="6.57748">
        <ele>1214.4000244141</ele>
        <time>2021-06-23T12:07:46.000Z</time>
      </trkpt>
      <trkpt lat="45.74766" lon="6.5775">
        <ele>1213.8000488281</ele>
        <time>2021-06-23T12:07:47.000Z</time>
      </trkpt>
      <trkpt lat="45.74766" lon="6.57752">
        <ele>1213.1999511719</ele>
        <time>2021-06-23T12:07:49.000Z</time>
      </trkpt>
      <trkpt lat="45.74765" lon="6.57754">
        <ele>1212.5999755859</ele>
        <time>2021-06-23T12:07:53.000Z</time>
      </trkpt>
      <trkpt lat="45.74766" lon="6.57754">
        <ele>1212</ele>
        <time>2021-06-23T12:08:01.000Z</time>
      </trkpt>
      <trkpt lat="45.74765" lon="6.57754">
        <ele>1212</ele>
        <time>2021-06-23T12:08:06.000Z</time>
      </trkpt>
      <trkpt lat="45.74765" lon="6.57756">
        <ele>1211.8000488281</ele>
        <time>2021-06-23T12:08:17.000Z</time>
      </trkpt>
      <trkpt lat="45.74766" lon="6.57756">
        <ele>1211.8000488281</ele>
        <time>2021-06-23T12:08:25.000Z</time>
      </trkpt>
      <trkpt lat="45.74766" lon="6.57756">
        <ele>1211.8000488281</ele>
        <time>2021-06-23T12:08:29.000Z</time>
      </trkpt>
      <trkpt lat="45.74766" lon="6.57757">
        <ele>1211.8000488281</ele>
        <time>2021-06-23T12:08:35.000Z</time>
      </trkpt>
      <trkpt lat="45.74765" lon="6.57757">
        <ele>1211.5999755859</ele>
        <time>2021-06-23T12:08:37.000Z</time>
      </trkpt>
      <trkpt lat="45.74765" lon="6.57756">
        <ele>1211.5999755859</ele>
        <time>2021-06-23T12:08:42.000Z</time>
      </trkpt>
      <trkpt lat="45.74765" lon="6.57757">
        <ele>1211.5999755859</ele>
        <time>2021-06-23T12:08:43.000Z</time>
      </trkpt>
      <trkpt lat="45.74765" lon="6.57758">
        <ele>1211.5999755859</ele>
        <time>2021-06-23T12:08:44.000Z</time>
      </trkpt>
      <trkpt lat="45.74768" lon="6.57774">
        <ele>1211.8000488281</ele>
        <time>2021-06-23T12:08:49.000Z</time>
      </trkpt>
      <trkpt lat="45.74773" lon="6.57815">
        <ele>1211.4000244141</ele>
        <time>2021-06-23T12:08:57.000Z</time>
      </trkpt>
      <trkpt lat="45.74775" lon="6.57822">
        <ele>1211.1999511719</ele>
        <time>2021-06-23T12:08:58.000Z</time>
      </trkpt>
      <trkpt lat="45.74777" lon="6.57828">
        <ele>1211</ele>
        <time>2021-06-23T12:08:59.000Z</time>
      </trkpt>
      <trkpt lat="45.7478" lon="6.57835">
        <ele>1210.8000488281</ele>
        <time>2021-06-23T12:09:00.000Z</time>
      </trkpt>
      <trkpt lat="45.74783" lon="6.57842">
        <ele>1210.5999755859</ele>
        <time>2021-06-23T12:09:01.000Z</time>
      </trkpt>
      <trkpt lat="45.74797" lon="6.57861">
        <ele>1209.5999755859</ele>
        <time>2021-06-23T12:09:04.000Z</time>
      </trkpt>
      <trkpt lat="45.74802" lon="6.57865">
        <ele>1209.1999511719</ele>
        <time>2021-06-23T12:09:05.000Z</time>
      </trkpt>
      <trkpt lat="45.74808" lon="6.57869">
        <ele>1209</ele>
        <time>2021-06-23T12:09:06.000Z</time>
      </trkpt>
      <trkpt lat="45.74818" lon="6.57874">
        <ele>1207.8000488281</ele>
        <time>2021-06-23T12:09:08.000Z</time>
      </trkpt>
      <trkpt lat="45.74822" lon="6.57877">
        <ele>1207.1999511719</ele>
        <time>2021-06-23T12:09:09.000Z</time>
      </trkpt>
      <trkpt lat="45.74824" lon="6.57881">
        <ele>1206.8000488281</ele>
        <time>2021-06-23T12:09:10.000Z</time>
      </trkpt>
      <trkpt lat="45.74824" lon="6.57884">
        <ele>1206.4000244141</ele>
        <time>2021-06-23T12:09:11.000Z</time>
      </trkpt>
      <trkpt lat="45.74823" lon="6.57886">
        <ele>1205.5999755859</ele>
        <time>2021-06-23T12:09:12.000Z</time>
      </trkpt>
      <trkpt lat="45.74822" lon="6.57887">
        <ele>1205</ele>
        <time>2021-06-23T12:09:13.000Z</time>
      </trkpt>
      <trkpt lat="45.74821" lon="6.57888">
        <ele>1204.5999755859</ele>
        <time>2021-06-23T12:09:14.000Z</time>
      </trkpt>
      <trkpt lat="45.74819" lon="6.57889">
        <ele>1203.5999755859</ele>
        <time>2021-06-23T12:09:16.000Z</time>
      </trkpt>
      <trkpt lat="45.74818" lon="6.5789">
        <ele>1203.1999511719</ele>
        <time>2021-06-23T12:09:17.000Z</time>
      </trkpt>
      <trkpt lat="45.74817" lon="6.57892">
        <ele>1202.4000244141</ele>
        <time>2021-06-23T12:09:19.000Z</time>
      </trkpt>
      <trkpt lat="45.74816" lon="6.57895">
        <ele>1202</ele>
        <time>2021-06-23T12:09:21.000Z</time>
      </trkpt>
      <trkpt lat="45.74814" lon="6.57899">
        <ele>1201.8000488281</ele>
        <time>2021-06-23T12:09:23.000Z</time>
      </trkpt>
      <trkpt lat="45.74805" lon="6.57911">
        <ele>1201.4000244141</ele>
        <time>2021-06-23T12:09:29.000Z</time>
      </trkpt>
      <trkpt lat="45.74805" lon="6.57912">
        <ele>1201</ele>
        <time>2021-06-23T12:09:31.000Z</time>
      </trkpt>
      <trkpt lat="45.74804" lon="6.57912">
        <ele>1200</ele>
        <time>2021-06-23T12:09:34.000Z</time>
      </trkpt>
      <trkpt lat="45.74804" lon="6.57913">
        <ele>1199.4000244141</ele>
        <time>2021-06-23T12:09:37.000Z</time>
      </trkpt>
      <trkpt lat="45.74804" lon="6.57913">
        <ele>1199.1999511719</ele>
        <time>2021-06-23T12:09:39.000Z</time>
      </trkpt>
      <trkpt lat="45.74805" lon="6.57914">
        <ele>1199</ele>
        <time>2021-06-23T12:09:46.000Z</time>
      </trkpt>
    </trkseg>
  </trk>
</gpx>